GEC8626 MPTO-EDDF
Flight info
| Callsign | GEC8626 |
|---|---|
| Flight time | 10h 9m |
| Altitude | 29000 |
| Route | EGETA DCT AGUJA UM597 LIDOL UG444 MAXIN/N0505F310 UG444 BOTES G444 GTK DCT LAMER/M083F310 DCT BALTN DCT QINCY/M083F330 DCT SOORY NATZ GUNSO/M082F350 DCT GAPLI/N0471F350 DCT SIDDI/N0473F370 DCT DAWLY DCT GIBSO L620 SAM M140 DVR UL9 KONAN UL607 SPI T180 NIVNU T847 IMCOM IMCOM1B |
| Aircraft | MD11/H-SDE1E2E3FGHIJ2J3J4J5M1RWXY/LB1D1 |
Departure
| Time | 2026-05-04 21:57 |
|---|---|
| Airport | Tocumen International Airport (MPTO) |
Arrival
| Time | 2026-05-05 08:07 |
|---|---|
| Airport | Frankfurt Main Airport (EDDF) |
| Time | Latitude | Longitude | Altitude | Speed | Heading |
|---|---|---|---|---|---|
| 2026-05-04 21:38 | 9.07091 | -79.38311 | 36 ft | 0 kts | 121° |
| 2026-05-04 21:51 | 9.07101 | -79.38327 | 36 ft | 4 kts | 124° |
| 2026-05-04 21:51 | 9.07117 | -79.38349 | 37 ft | 4 kts | 127° |
| 2026-05-04 21:51 | 9.07130 | -79.38367 | 35 ft | 4 kts | 122° |
| 2026-05-04 21:52 | 9.07141 | -79.38391 | 35 ft | 4 kts | 104° |
| 2026-05-04 21:52 | 9.07145 | -79.38413 | 36 ft | 1 kts | 94° |
| 2026-05-04 21:52 | 9.07146 | -79.38415 | 35 ft | 0 kts | 94° |
| 2026-05-04 21:54 | 9.07145 | -79.38412 | 38 ft | 2 kts | 93° |
| 2026-05-04 21:54 | 9.07152 | -79.38379 | 36 ft | 7 kts | 68° |
| 2026-05-04 21:54 | 9.07178 | -79.38332 | 38 ft | 6 kts | 70° |
| 2026-05-04 21:54 | 9.07176 | -79.38284 | 36 ft | 8 kts | 104° |
| 2026-05-04 21:55 | 9.07148 | -79.38220 | 37 ft | 11 kts | 116° |
| 2026-05-04 21:55 | 9.07116 | -79.38144 | 37 ft | 12 kts | 96° |
| 2026-05-04 21:55 | 9.07159 | -79.38082 | 37 ft | 10 kts | 34° |
| 2026-05-04 21:55 | 9.07196 | -79.38044 | 37 ft | 6 kts | 60° |
| 2026-05-04 21:56 | 9.07192 | -79.38002 | 35 ft | 5 kts | 110° |
| 2026-05-04 21:56 | 9.07175 | -79.37969 | 37 ft | 9 kts | 117° |
| 2026-05-04 21:56 | 9.07127 | -79.37932 | 37 ft | 9 kts | 186° |
| 2026-05-04 21:56 | 9.06880 | -79.38057 | 37 ft | 76 kts | 209° |
| 2026-05-04 21:57 | 9.06209 | -79.38438 | 39 ft | 143 kts | 210° |
| 2026-05-04 21:57 | 9.05180 | -79.39025 | 41 ft | 191 kts | 208° |
| 2026-05-04 21:57 | 9.03990 | -79.39712 | 415 ft | 201 kts | 210° |
| 2026-05-04 21:57 | 9.02753 | -79.40420 | 960 ft | 210 kts | 210° |
| 2026-05-04 21:58 | 9.01414 | -79.41179 | 1053 ft | 228 kts | 210° |
| 2026-05-04 21:58 | 9.00047 | -79.41919 | 1517 ft | 223 kts | 207° |
| 2026-05-04 21:58 | 8.98638 | -79.42639 | 2066 ft | 231 kts | 208° |
| 2026-05-04 21:58 | 8.97230 | -79.43420 | 2694 ft | 232 kts | 210° |
| 2026-05-04 21:59 | 8.95846 | -79.44319 | 3231 ft | 243 kts | 217° |
| 2026-05-04 21:59 | 8.94520 | -79.45465 | 3576 ft | 262 kts | 229° |
| 2026-05-04 21:59 | 8.93783 | -79.47132 | 4067 ft | 259 kts | 270° |
| 2026-05-04 21:59 | 8.94259 | -79.48875 | 4375 ft | 273 kts | 308° |
| 2026-05-04 22:00 | 8.95805 | -79.50059 | 4441 ft | 293 kts | 339° |
| 2026-05-04 22:00 | 8.97788 | -79.50316 | 5239 ft | 280 kts | 9° |
| 2026-05-04 22:00 | 8.99688 | -79.49697 | 5569 ft | 300 kts | 32° |
| 2026-05-04 22:00 | 9.01243 | -79.48237 | 5978 ft | 310 kts | 56° |
| 2026-05-04 22:01 | 9.02308 | -79.46326 | 6587 ft | 315 kts | 64° |
| 2026-05-04 22:01 | 9.03255 | -79.44313 | 7193 ft | 319 kts | 65° |
| 2026-05-04 22:01 | 9.04196 | -79.42269 | 7872 ft | 321 kts | 65° |
| 2026-05-04 22:01 | 9.05125 | -79.40250 | 8599 ft | 323 kts | 65° |
| 2026-05-04 22:02 | 9.06152 | -79.38213 | 9226 ft | 326 kts | 61° |
| 2026-05-04 22:02 | 9.07360 | -79.36259 | 9876 ft | 329 kts | 56° |
| 2026-05-04 22:02 | 9.08761 | -79.34342 | 10075 ft | 348 kts | 52° |
| 2026-05-04 22:02 | 9.10347 | -79.32434 | 10450 ft | 357 kts | 50° |
| 2026-05-04 22:03 | 9.12029 | -79.30564 | 11008 ft | 361 kts | 47° |
| 2026-05-04 22:03 | 9.13773 | -79.28710 | 11597 ft | 363 kts | 47° |
| 2026-05-04 22:03 | 9.15522 | -79.26896 | 12125 ft | 367 kts | 46° |
| 2026-05-04 22:03 | 9.17323 | -79.25053 | 12674 ft | 370 kts | 46° |
| 2026-05-04 22:04 | 9.19145 | -79.23201 | 13174 ft | 373 kts | 46° |
| 2026-05-04 22:04 | 9.20990 | -79.21331 | 13703 ft | 375 kts | 46° |
| 2026-05-04 22:04 | 9.22844 | -79.19454 | 14127 ft | 379 kts | 46° |
| 2026-05-04 22:04 | 9.24715 | -79.17560 | 14595 ft | 381 kts | 46° |
| 2026-05-04 22:05 | 9.26595 | -79.15657 | 15074 ft | 384 kts | 46° |
| 2026-05-04 22:05 | 9.28489 | -79.13739 | 15537 ft | 387 kts | 46° |
| 2026-05-04 22:05 | 9.30399 | -79.11804 | 15941 ft | 390 kts | 46° |
| 2026-05-04 22:05 | 9.32321 | -79.09857 | 16340 ft | 392 kts | 46° |
| 2026-05-04 22:06 | 9.34259 | -79.07893 | 16742 ft | 395 kts | 46° |
| 2026-05-04 22:06 | 9.36182 | -79.05944 | 17147 ft | 398 kts | 46° |
| 2026-05-04 22:06 | 9.38150 | -79.03949 | 17525 ft | 401 kts | 46° |
| 2026-05-04 22:06 | 9.40128 | -79.01944 | 17902 ft | 403 kts | 46° |
| 2026-05-04 22:07 | 9.42116 | -78.99928 | 18254 ft | 406 kts | 46° |
| 2026-05-04 22:07 | 9.44113 | -78.97903 | 18587 ft | 408 kts | 46° |
| 2026-05-04 22:07 | 9.46126 | -78.95861 | 18894 ft | 410 kts | 46° |
| 2026-05-04 22:07 | 9.48152 | -78.93806 | 19191 ft | 412 kts | 46° |
| 2026-05-04 22:08 | 9.50175 | -78.91753 | 19498 ft | 415 kts | 46° |
| 2026-05-04 22:08 | 9.52224 | -78.89674 | 19796 ft | 417 kts | 46° |
| 2026-05-04 22:08 | 9.54256 | -78.87609 | 20063 ft | 419 kts | 46° |
| 2026-05-04 22:08 | 9.56322 | -78.85509 | 20357 ft | 421 kts | 45° |
| 2026-05-04 22:09 | 9.58395 | -78.83401 | 20641 ft | 423 kts | 46° |
| 2026-05-04 22:09 | 9.60483 | -78.81278 | 20890 ft | 427 kts | 45° |
| 2026-05-04 22:09 | 9.62584 | -78.79143 | 21195 ft | 429 kts | 45° |
| 2026-05-04 22:09 | 9.64702 | -78.76992 | 21448 ft | 432 kts | 45° |
| 2026-05-04 22:10 | 9.66823 | -78.74836 | 21864 ft | 432 kts | 45° |
| 2026-05-04 22:10 | 9.68949 | -78.72676 | 22134 ft | 434 kts | 45° |
| 2026-05-04 22:10 | 9.71086 | -78.70504 | 22441 ft | 437 kts | 45° |
| 2026-05-04 22:10 | 9.73240 | -78.68313 | 22755 ft | 439 kts | 45° |
| 2026-05-04 22:11 | 9.75403 | -78.66115 | 23035 ft | 442 kts | 45° |
| 2026-05-04 22:11 | 9.77585 | -78.63895 | 23355 ft | 444 kts | 45° |
| 2026-05-04 22:11 | 9.79774 | -78.61668 | 23607 ft | 447 kts | 45° |
| 2026-05-04 22:11 | 9.81977 | -78.59426 | 23905 ft | 448 kts | 44° |
| 2026-05-04 22:12 | 9.84157 | -78.57207 | 24168 ft | 450 kts | 44° |
| 2026-05-04 22:12 | 9.86375 | -78.54950 | 24453 ft | 452 kts | 45° |
| 2026-05-04 22:12 | 9.88600 | -78.52684 | 24739 ft | 454 kts | 45° |
| 2026-05-04 22:12 | 9.90833 | -78.50410 | 25003 ft | 456 kts | 44° |
| 2026-05-04 22:13 | 9.93074 | -78.48128 | 25317 ft | 457 kts | 44° |
| 2026-05-04 22:13 | 9.95328 | -78.45831 | 25580 ft | 460 kts | 44° |
| 2026-05-04 22:13 | 9.97588 | -78.43529 | 25876 ft | 461 kts | 45° |
| 2026-05-04 22:13 | 9.99857 | -78.41216 | 26133 ft | 463 kts | 44° |
| 2026-05-04 22:14 | 10.01365 | -78.39678 | 26315 ft | 464 kts | 44° |
| 2026-05-04 22:14 | 10.03651 | -78.37348 | 26577 ft | 466 kts | 44° |
| 2026-05-04 22:14 | 10.05940 | -78.35013 | 26814 ft | 468 kts | 44° |
| 2026-05-04 22:14 | 10.08238 | -78.32670 | 27080 ft | 469 kts | 44° |
| 2026-05-04 22:15 | 10.10548 | -78.30312 | 27303 ft | 472 kts | 44° |
| 2026-05-04 22:15 | 10.12869 | -78.27942 | 27578 ft | 474 kts | 45° |
| 2026-05-04 22:15 | 10.15198 | -78.25561 | 27759 ft | 474 kts | 44° |
| 2026-05-04 22:15 | 10.17512 | -78.23194 | 28135 ft | 470 kts | 44° |
| 2026-05-04 22:16 | 10.19816 | -78.20839 | 28515 ft | 469 kts | 44° |
| 2026-05-04 22:16 | 10.22119 | -78.18487 | 28785 ft | 470 kts | 44° |
| 2026-05-04 22:16 | 10.24431 | -78.16125 | 28851 ft | 475 kts | 45° |
| 2026-05-04 22:17 | 10.29152 | -78.11302 | 28860 ft | 488 kts | 44° |
| 2026-05-04 22:17 | 10.33950 | -78.06397 | 29021 ft | 496 kts | 44° |
| 2026-05-04 22:17 | 10.36388 | -78.03903 | 29153 ft | 499 kts | 44° |
| 2026-05-04 22:18 | 10.38834 | -78.01399 | 29374 ft | 499 kts | 44° |
| 2026-05-04 22:18 | 10.41284 | -77.98892 | 29610 ft | 499 kts | 44° |
| 2026-05-04 22:18 | 10.43727 | -77.96392 | 29881 ft | 499 kts | 44° |
| 2026-05-04 22:18 | 10.46174 | -77.93886 | 30060 ft | 499 kts | 44° |
| 2026-05-04 22:19 | 10.48616 | -77.91386 | 30227 ft | 499 kts | 44° |
| 2026-05-04 22:19 | 10.51068 | -77.88875 | 30439 ft | 499 kts | 45° |
| 2026-05-04 22:19 | 10.53508 | -77.86376 | 30610 ft | 498 kts | 44° |
| 2026-05-04 22:19 | 10.55949 | -77.83875 | 30792 ft | 497 kts | 45° |
| 2026-05-04 22:20 | 10.58389 | -77.81374 | 30844 ft | 498 kts | 44° |
| 2026-05-04 22:20 | 10.63262 | -77.76378 | 30861 ft | 498 kts | 44° |
| 2026-05-04 22:21 | 10.68111 | -77.71403 | 30864 ft | 498 kts | 44° |
| 2026-05-04 22:21 | 10.72982 | -77.66399 | 30865 ft | 497 kts | 44° |
| 2026-05-04 22:22 | 10.77853 | -77.61391 | 30862 ft | 498 kts | 44° |
| 2026-05-04 22:22 | 10.82725 | -77.56384 | 30865 ft | 497 kts | 44° |
| 2026-05-04 22:23 | 10.87581 | -77.51394 | 30863 ft | 497 kts | 44° |
| 2026-05-04 22:23 | 10.92446 | -77.46392 | 30863 ft | 497 kts | 44° |
| 2026-05-04 22:24 | 10.97307 | -77.41391 | 30864 ft | 497 kts | 44° |
| 2026-05-04 22:24 | 11.02173 | -77.36381 | 30865 ft | 497 kts | 43° |
| 2026-05-04 22:25 | 11.07000 | -77.31409 | 30863 ft | 497 kts | 43° |
| 2026-05-04 22:25 | 11.11863 | -77.26401 | 30865 ft | 497 kts | 45° |
| 2026-05-04 22:26 | 11.16722 | -77.21392 | 30859 ft | 497 kts | 44° |
| 2026-05-04 22:26 | 11.21581 | -77.16380 | 30866 ft | 496 kts | 44° |
| 2026-05-04 22:27 | 11.26432 | -77.11375 | 30868 ft | 496 kts | 44° |
| 2026-05-04 22:27 | 11.31277 | -77.06367 | 30866 ft | 497 kts | 44° |
| 2026-05-04 22:28 | 11.36123 | -77.01354 | 30870 ft | 496 kts | 43° |
| 2026-05-04 22:28 | 11.41014 | -76.96380 | 30872 ft | 496 kts | 43° |
| 2026-05-04 22:29 | 11.45934 | -76.91445 | 30870 ft | 496 kts | 43° |
| 2026-05-04 22:29 | 11.50858 | -76.86507 | 30868 ft | 496 kts | 43° |
| 2026-05-04 22:30 | 11.55736 | -76.81605 | 30867 ft | 495 kts | 43° |
| 2026-05-04 22:30 | 11.60642 | -76.76670 | 30873 ft | 495 kts | 44° |
| 2026-05-04 22:31 | 11.65550 | -76.71729 | 30872 ft | 495 kts | 43° |
| 2026-05-04 22:31 | 11.70450 | -76.66794 | 30871 ft | 495 kts | 43° |
| 2026-05-04 22:32 | 11.75364 | -76.61843 | 30879 ft | 497 kts | 43° |
| 2026-05-04 22:32 | 11.80261 | -76.56907 | 30873 ft | 498 kts | 43° |
| 2026-05-04 22:33 | 11.85190 | -76.51935 | 30873 ft | 498 kts | 42° |
| 2026-05-04 22:33 | 11.90125 | -76.46955 | 30878 ft | 497 kts | 44° |
| 2026-05-04 22:34 | 11.95033 | -76.41999 | 30876 ft | 496 kts | 43° |
| 2026-05-04 22:34 | 11.99938 | -76.37036 | 30882 ft | 496 kts | 43° |
| 2026-05-04 22:35 | 12.04842 | -76.32072 | 30879 ft | 496 kts | 43° |
| 2026-05-04 22:35 | 12.09749 | -76.27108 | 30881 ft | 497 kts | 43° |
| 2026-05-04 22:36 | 12.14648 | -76.22151 | 30876 ft | 499 kts | 43° |
| 2026-05-04 22:36 | 12.19581 | -76.17156 | 30879 ft | 499 kts | 44° |
| 2026-05-04 22:37 | 12.24513 | -76.12159 | 30879 ft | 498 kts | 43° |
| 2026-05-04 22:37 | 12.29434 | -76.07169 | 30881 ft | 497 kts | 43° |
| 2026-05-04 22:38 | 12.34337 | -76.02193 | 30885 ft | 497 kts | 43° |
| 2026-05-04 22:38 | 12.39221 | -75.97237 | 30886 ft | 497 kts | 43° |
| 2026-05-04 22:39 | 12.44140 | -75.92243 | 30886 ft | 499 kts | 44° |
| 2026-05-04 22:39 | 12.49074 | -75.87234 | 30887 ft | 500 kts | 43° |
| 2026-05-04 22:40 | 12.54007 | -75.82219 | 30894 ft | 499 kts | 43° |
| 2026-05-04 22:40 | 12.58940 | -75.77203 | 30889 ft | 500 kts | 44° |
| 2026-05-04 22:41 | 12.63874 | -75.72182 | 30887 ft | 499 kts | 42° |
| 2026-05-04 22:41 | 12.68772 | -75.67196 | 30892 ft | 499 kts | 44° |
| 2026-05-04 22:42 | 12.73696 | -75.62181 | 30889 ft | 499 kts | 42° |
| 2026-05-04 22:42 | 12.78632 | -75.57150 | 30891 ft | 501 kts | 43° |
| 2026-05-04 22:43 | 12.83569 | -75.52116 | 30898 ft | 501 kts | 42° |
| 2026-05-04 22:43 | 12.88513 | -75.47067 | 30897 ft | 501 kts | 43° |
| 2026-05-04 22:44 | 12.93447 | -75.42019 | 30900 ft | 501 kts | 44° |
| 2026-05-04 22:44 | 12.98377 | -75.36969 | 30904 ft | 501 kts | 43° |
| 2026-05-04 22:45 | 13.03274 | -75.31948 | 30900 ft | 500 kts | 44° |
| 2026-05-04 22:45 | 13.10672 | -75.24360 | 30909 ft | 502 kts | 43° |
| 2026-05-04 22:46 | 13.15617 | -75.19286 | 30907 ft | 503 kts | 44° |
| 2026-05-04 22:46 | 13.20535 | -75.14236 | 30912 ft | 503 kts | 43° |
| 2026-05-04 22:47 | 13.25487 | -75.09152 | 30909 ft | 503 kts | 43° |
| 2026-05-04 22:47 | 13.30435 | -75.04075 | 30897 ft | 502 kts | 44° |
| 2026-05-04 22:48 | 13.35379 | -74.98998 | 30909 ft | 502 kts | 43° |
| 2026-05-04 22:48 | 13.40319 | -74.93924 | 30914 ft | 502 kts | 43° |
| 2026-05-04 22:49 | 13.45264 | -74.88842 | 30914 ft | 504 kts | 44° |
| 2026-05-04 22:49 | 13.50186 | -74.83778 | 30920 ft | 504 kts | 43° |
| 2026-05-04 22:50 | 13.55141 | -74.78677 | 30918 ft | 504 kts | 43° |
| 2026-05-04 22:50 | 13.60092 | -74.73577 | 30922 ft | 504 kts | 43° |
| 2026-05-04 22:51 | 13.65047 | -74.68470 | 30917 ft | 504 kts | 43° |
| 2026-05-04 22:51 | 13.69965 | -74.63400 | 30922 ft | 503 kts | 43° |
| 2026-05-04 22:52 | 13.74912 | -74.58295 | 30923 ft | 504 kts | 43° |
| 2026-05-04 22:52 | 13.79872 | -74.53168 | 30923 ft | 504 kts | 43° |
| 2026-05-04 22:53 | 13.84806 | -74.48062 | 30927 ft | 504 kts | 44° |
| 2026-05-04 22:53 | 13.89757 | -74.42939 | 30923 ft | 505 kts | 42° |
| 2026-05-04 22:54 | 13.94714 | -74.37811 | 30930 ft | 504 kts | 43° |
| 2026-05-04 22:54 | 13.99663 | -74.32687 | 30928 ft | 504 kts | 42° |
| 2026-05-04 22:55 | 14.04587 | -74.27588 | 30926 ft | 505 kts | 43° |
| 2026-05-04 22:55 | 14.09534 | -74.22460 | 30939 ft | 504 kts | 43° |
| 2026-05-04 22:56 | 14.14475 | -74.17333 | 30934 ft | 504 kts | 43° |
| 2026-05-04 22:56 | 14.19421 | -74.12197 | 30932 ft | 504 kts | 43° |
| 2026-05-04 22:57 | 14.24340 | -74.07087 | 30937 ft | 504 kts | 44° |
| 2026-05-04 22:57 | 14.29286 | -74.01949 | 30934 ft | 504 kts | 43° |
| 2026-05-04 22:58 | 14.34237 | -73.96821 | 30938 ft | 504 kts | 43° |
| 2026-05-04 22:58 | 14.39206 | -73.91690 | 30939 ft | 505 kts | 44° |
| 2026-05-04 22:59 | 14.44171 | -73.86561 | 30940 ft | 505 kts | 42° |
| 2026-05-04 22:59 | 14.49143 | -73.81421 | 30937 ft | 506 kts | 43° |
| 2026-05-04 23:00 | 14.54079 | -73.76315 | 30942 ft | 505 kts | 43° |
| 2026-05-04 23:00 | 14.59041 | -73.71176 | 30944 ft | 505 kts | 42° |
| 2026-05-04 23:01 | 14.64005 | -73.66034 | 30949 ft | 506 kts | 43° |
| 2026-05-04 23:01 | 14.68141 | -73.61747 | 30952 ft | 505 kts | 44° |
| 2026-05-04 23:02 | 14.73106 | -73.56597 | 30949 ft | 506 kts | 43° |
| 2026-05-04 23:02 | 14.78080 | -73.51434 | 30946 ft | 506 kts | 43° |
| 2026-05-04 23:03 | 14.83054 | -73.46266 | 30954 ft | 507 kts | 44° |
| 2026-05-04 23:03 | 14.88059 | -73.41134 | 30949 ft | 506 kts | 41° |
| 2026-05-04 23:04 | 14.93146 | -73.36160 | 30949 ft | 506 kts | 41° |
| 2026-05-04 23:04 | 14.98295 | -73.31186 | 30952 ft | 507 kts | 42° |
| 2026-05-04 23:05 | 15.03433 | -73.26206 | 30958 ft | 506 kts | 41° |
| 2026-05-04 23:05 | 15.08898 | -73.21638 | 30959 ft | 502 kts | 28° |
| 2026-05-04 23:06 | 15.15341 | -73.19027 | 30965 ft | 497 kts | 11° |
| 2026-05-04 23:06 | 15.22098 | -73.17507 | 30966 ft | 497 kts | 9° |
| 2026-05-04 23:07 | 15.28790 | -73.15870 | 30965 ft | 497 kts | 11° |
| 2026-05-04 23:07 | 15.35483 | -73.14020 | 30974 ft | 498 kts | 12° |
| 2026-05-04 23:08 | 15.42145 | -73.12112 | 30967 ft | 498 kts | 14° |
| 2026-05-04 23:08 | 15.48827 | -73.10198 | 30971 ft | 498 kts | 13° |
| 2026-05-04 23:09 | 15.55506 | -73.08293 | 30972 ft | 498 kts | 13° |
| 2026-05-04 23:09 | 15.62175 | -73.06401 | 30969 ft | 498 kts | 13° |
| 2026-05-04 23:10 | 15.68856 | -73.04510 | 30976 ft | 498 kts | 12° |
| 2026-05-04 23:10 | 15.75537 | -73.02617 | 30975 ft | 498 kts | 12° |
| 2026-05-04 23:11 | 15.82219 | -73.00723 | 30976 ft | 498 kts | 13° |
| 2026-05-04 23:11 | 15.88907 | -72.98826 | 30972 ft | 498 kts | 13° |
| 2026-05-04 23:12 | 15.95544 | -72.96941 | 30985 ft | 498 kts | 13° |
| 2026-05-04 23:12 | 16.02230 | -72.95041 | 30983 ft | 498 kts | 13° |
| 2026-05-04 23:13 | 16.08913 | -72.93139 | 30986 ft | 498 kts | 13° |
| 2026-05-04 23:13 | 16.15604 | -72.91235 | 30985 ft | 498 kts | 13° |
| 2026-05-04 23:14 | 16.22295 | -72.89330 | 30986 ft | 498 kts | 13° |
| 2026-05-04 23:14 | 16.28986 | -72.87413 | 30986 ft | 498 kts | 13° |
| 2026-05-04 23:15 | 16.35642 | -72.85493 | 30992 ft | 499 kts | 13° |
| 2026-05-04 23:15 | 16.42345 | -72.83559 | 30992 ft | 499 kts | 13° |
| 2026-05-04 23:16 | 16.49045 | -72.81626 | 30993 ft | 499 kts | 13° |
| 2026-05-04 23:16 | 16.55744 | -72.79691 | 30992 ft | 499 kts | 13° |
| 2026-05-04 23:17 | 16.62434 | -72.77759 | 30997 ft | 499 kts | 13° |
| 2026-05-04 23:17 | 16.69088 | -72.75835 | 30996 ft | 500 kts | 13° |
| 2026-05-04 23:18 | 16.75804 | -72.73893 | 30998 ft | 500 kts | 14° |
| 2026-05-04 23:18 | 16.82521 | -72.71948 | 30998 ft | 501 kts | 13° |
| 2026-05-04 23:19 | 16.89244 | -72.70000 | 31002 ft | 501 kts | 13° |
| 2026-05-04 23:19 | 16.95965 | -72.68052 | 31003 ft | 500 kts | 13° |
| 2026-05-04 23:20 | 17.02724 | -72.66540 | 31003 ft | 500 kts | 7° |
| 2026-05-04 23:20 | 17.09599 | -72.65450 | 31002 ft | 500 kts | 6° |
| 2026-05-04 23:21 | 17.16479 | -72.64390 | 31004 ft | 500 kts | 6° |
| 2026-05-04 23:21 | 17.23366 | -72.63283 | 31003 ft | 500 kts | 6° |
| 2026-05-04 23:22 | 17.30250 | -72.62155 | 31004 ft | 500 kts | 7° |
| 2026-05-04 23:22 | 17.37089 | -72.61031 | 31005 ft | 500 kts | 6° |
| 2026-05-04 23:23 | 17.43957 | -72.59903 | 31007 ft | 500 kts | 6° |
| 2026-05-04 23:23 | 17.50837 | -72.58774 | 31007 ft | 500 kts | 7° |
| 2026-05-04 23:24 | 17.57712 | -72.57644 | 31007 ft | 500 kts | 7° |
| 2026-05-04 23:24 | 17.64584 | -72.56514 | 31013 ft | 500 kts | 6° |
| 2026-05-04 23:25 | 17.71467 | -72.55381 | 31009 ft | 500 kts | 6° |
| 2026-05-04 23:25 | 17.78345 | -72.54249 | 31013 ft | 501 kts | 6° |
| 2026-05-04 23:26 | 17.85227 | -72.53113 | 31012 ft | 501 kts | 6° |
| 2026-05-04 23:26 | 17.92061 | -72.51905 | 31014 ft | 502 kts | 10° |
| 2026-05-04 23:27 | 17.98804 | -72.49934 | 31016 ft | 504 kts | 15° |
| 2026-05-04 23:27 | 18.05484 | -72.47654 | 31020 ft | 505 kts | 15° |
| 2026-05-04 23:28 | 18.12184 | -72.45393 | 31020 ft | 505 kts | 15° |
| 2026-05-04 23:28 | 18.18892 | -72.43180 | 31010 ft | 505 kts | 15° |
| 2026-05-04 23:29 | 18.25593 | -72.40984 | 31009 ft | 504 kts | 15° |
| 2026-05-04 23:29 | 18.32265 | -72.38796 | 30995 ft | 506 kts | 15° |
| 2026-05-04 23:30 | 18.38996 | -72.36584 | 30975 ft | 507 kts | 15° |
| 2026-05-04 23:30 | 18.45729 | -72.34368 | 30969 ft | 507 kts | 15° |
| 2026-05-04 23:31 | 18.52458 | -72.32152 | 30965 ft | 507 kts | 15° |
| 2026-05-04 23:31 | 18.59194 | -72.29943 | 30965 ft | 506 kts | 14° |
| 2026-05-04 23:32 | 18.65902 | -72.27787 | 30968 ft | 508 kts | 14° |
| 2026-05-04 23:32 | 18.72673 | -72.25624 | 30963 ft | 508 kts | 14° |
| 2026-05-04 23:33 | 18.79437 | -72.23458 | 30961 ft | 507 kts | 14° |
| 2026-05-04 23:33 | 18.86190 | -72.21292 | 30955 ft | 507 kts | 14° |
| 2026-05-04 23:34 | 18.92948 | -72.19123 | 30969 ft | 507 kts | 14° |
| 2026-05-04 23:34 | 18.99707 | -72.16956 | 30964 ft | 508 kts | 13° |
| 2026-05-04 23:35 | 19.06457 | -72.14886 | 30975 ft | 508 kts | 13° |
| 2026-05-04 23:35 | 19.13262 | -72.12851 | 30974 ft | 508 kts | 13° |
| 2026-05-04 23:36 | 19.20077 | -72.10811 | 30984 ft | 508 kts | 13° |
| 2026-05-04 23:36 | 19.26882 | -72.08766 | 30989 ft | 509 kts | 13° |
| 2026-05-04 23:37 | 19.33697 | -72.06713 | 31001 ft | 509 kts | 13° |
| 2026-05-04 23:37 | 19.40463 | -72.04673 | 31001 ft | 509 kts | 13° |
| 2026-05-04 23:38 | 19.47261 | -72.02621 | 31008 ft | 509 kts | 13° |
| 2026-05-04 23:38 | 19.54118 | -72.00550 | 31006 ft | 509 kts | 13° |
| 2026-05-04 23:39 | 19.60891 | -71.98503 | 31014 ft | 510 kts | 13° |
| 2026-05-04 23:39 | 19.67739 | -71.96543 | 31007 ft | 509 kts | 11° |
| 2026-05-04 23:40 | 19.74624 | -71.94770 | 31003 ft | 509 kts | 10° |
| 2026-05-04 23:40 | 19.81523 | -71.93021 | 31009 ft | 509 kts | 10° |
| 2026-05-04 23:41 | 19.88412 | -71.91258 | 31011 ft | 510 kts | 10° |
| 2026-05-04 23:41 | 19.95263 | -71.89492 | 31022 ft | 510 kts | 10° |
| 2026-05-04 23:42 | 20.02170 | -71.87709 | 31021 ft | 510 kts | 10° |
| 2026-05-04 23:42 | 20.09082 | -71.85923 | 31021 ft | 510 kts | 10° |
| 2026-05-04 23:43 | 20.15985 | -71.84139 | 31018 ft | 510 kts | 10° |
| 2026-05-04 23:43 | 20.22887 | -71.82353 | 31023 ft | 511 kts | 10° |
| 2026-05-04 23:44 | 20.29761 | -71.80565 | 31021 ft | 512 kts | 10° |
| 2026-05-04 23:44 | 20.36677 | -71.78759 | 31021 ft | 512 kts | 10° |
| 2026-05-04 23:45 | 20.43528 | -71.76650 | 31021 ft | 515 kts | 20° |
| 2026-05-04 23:45 | 20.49929 | -71.73108 | 31021 ft | 519 kts | 28° |
| 2026-05-04 23:46 | 20.56148 | -71.69154 | 31026 ft | 520 kts | 28° |
| 2026-05-04 23:46 | 20.62398 | -71.65277 | 31026 ft | 519 kts | 27° |
| 2026-05-04 23:47 | 20.68645 | -71.61505 | 31026 ft | 519 kts | 26° |
| 2026-05-04 23:47 | 20.74950 | -71.57722 | 31026 ft | 519 kts | 26° |
| 2026-05-04 23:48 | 20.81246 | -71.53936 | 31024 ft | 520 kts | 26° |
| 2026-05-04 23:48 | 20.87546 | -71.50140 | 31024 ft | 520 kts | 26° |
| 2026-05-04 23:49 | 20.93849 | -71.46336 | 31026 ft | 520 kts | 27° |
| 2026-05-04 23:49 | 21.00155 | -71.42527 | 31026 ft | 520 kts | 27° |
| 2026-05-04 23:50 | 21.05384 | -71.39353 | 31026 ft | 520 kts | 27° |
| 2026-05-04 23:50 | 21.12581 | -71.34628 | 31027 ft | 523 kts | 30° |
| 2026-05-04 23:51 | 21.17731 | -71.31124 | 31029 ft | 523 kts | 30° |
| 2026-05-04 23:51 | 21.23843 | -71.26973 | 31028 ft | 523 kts | 30° |
| 2026-05-04 23:52 | 21.30005 | -71.22808 | 31029 ft | 523 kts | 29° |
| 2026-05-04 23:52 | 21.36162 | -71.18651 | 31030 ft | 523 kts | 29° |
| 2026-05-04 23:53 | 21.42405 | -71.14656 | 31032 ft | 521 kts | 21° |
| 2026-05-04 23:53 | 21.49211 | -71.12153 | 31032 ft | 516 kts | 11° |
| 2026-05-04 23:54 | 21.56167 | -71.10282 | 31028 ft | 515 kts | 10° |
| 2026-05-04 23:54 | 21.63112 | -71.08341 | 31029 ft | 516 kts | 11° |
| 2026-05-04 23:55 | 21.69999 | -71.06298 | 31032 ft | 517 kts | 11° |
| 2026-05-04 23:56 | 21.80406 | -71.03156 | 31032 ft | 518 kts | 11° |
| 2026-05-04 23:56 | 21.87353 | -71.01060 | 31036 ft | 518 kts | 11° |
| 2026-05-04 23:57 | 21.94293 | -70.98969 | 31035 ft | 518 kts | 11° |
| 2026-05-04 23:57 | 22.01243 | -70.96873 | 31038 ft | 519 kts | 11° |
| 2026-05-04 23:58 | 22.08162 | -70.94784 | 31034 ft | 520 kts | 11° |
| 2026-05-04 23:58 | 22.15134 | -70.92676 | 31033 ft | 520 kts | 11° |
| 2026-05-04 23:59 | 22.22099 | -70.90568 | 31040 ft | 520 kts | 11° |
| 2026-05-04 23:59 | 22.29065 | -70.88453 | 31050 ft | 521 kts | 11° |
| 2026-05-05 00:00 | 22.36060 | -70.86329 | 31039 ft | 521 kts | 11° |
| 2026-05-05 00:00 | 22.43044 | -70.84209 | 31042 ft | 522 kts | 11° |
| 2026-05-05 00:01 | 22.49987 | -70.82099 | 31045 ft | 522 kts | 11° |
| 2026-05-05 00:01 | 22.56998 | -70.79966 | 31055 ft | 522 kts | 11° |
| 2026-05-05 00:02 | 22.64006 | -70.77833 | 31043 ft | 523 kts | 11° |
| 2026-05-05 00:02 | 22.71016 | -70.75696 | 31043 ft | 523 kts | 11° |
| 2026-05-05 00:03 | 22.78038 | -70.73553 | 31046 ft | 523 kts | 11° |
| 2026-05-05 00:03 | 22.84998 | -70.71427 | 31045 ft | 523 kts | 11° |
| 2026-05-05 00:04 | 22.92023 | -70.69278 | 31048 ft | 524 kts | 11° |
| 2026-05-05 00:04 | 22.99057 | -70.67125 | 31040 ft | 525 kts | 11° |
| 2026-05-05 00:05 | 23.06083 | -70.64969 | 31042 ft | 525 kts | 11° |
| 2026-05-05 00:05 | 23.13116 | -70.62806 | 31045 ft | 525 kts | 11° |
| 2026-05-05 00:06 | 23.20097 | -70.60660 | 31052 ft | 525 kts | 11° |
| 2026-05-05 00:06 | 23.27130 | -70.58498 | 31055 ft | 525 kts | 11° |
| 2026-05-05 00:07 | 23.34170 | -70.56331 | 31042 ft | 525 kts | 11° |
| 2026-05-05 00:07 | 23.41194 | -70.54166 | 31051 ft | 525 kts | 11° |
| 2026-05-05 00:08 | 23.48208 | -70.52003 | 31046 ft | 525 kts | 11° |
| 2026-05-05 00:08 | 23.55241 | -70.49831 | 31051 ft | 525 kts | 11° |
| 2026-05-05 00:09 | 23.62282 | -70.47654 | 31049 ft | 525 kts | 11° |
| 2026-05-05 00:09 | 23.69319 | -70.45476 | 31053 ft | 525 kts | 11° |
| 2026-05-05 00:10 | 23.76306 | -70.43310 | 31054 ft | 525 kts | 11° |
| 2026-05-05 00:10 | 23.83347 | -70.41126 | 31051 ft | 526 kts | 11° |
| 2026-05-05 00:11 | 23.90383 | -70.38936 | 31057 ft | 526 kts | 11° |
| 2026-05-05 00:11 | 23.97426 | -70.36742 | 31053 ft | 526 kts | 11° |
| 2026-05-05 00:12 | 24.04461 | -70.34551 | 31059 ft | 525 kts | 11° |
| 2026-05-05 00:12 | 24.11446 | -70.32374 | 31055 ft | 524 kts | 11° |
| 2026-05-05 00:13 | 24.18466 | -70.30185 | 31054 ft | 524 kts | 11° |
| 2026-05-05 00:13 | 24.25484 | -70.27993 | 31053 ft | 524 kts | 11° |
| 2026-05-05 00:14 | 24.32502 | -70.25798 | 31064 ft | 524 kts | 11° |
| 2026-05-05 00:14 | 24.39508 | -70.23605 | 31051 ft | 523 kts | 11° |
| 2026-05-05 00:15 | 24.46507 | -70.21411 | 31052 ft | 523 kts | 11° |
| 2026-05-05 00:15 | 24.53519 | -70.19211 | 31046 ft | 524 kts | 11° |
| 2026-05-05 00:16 | 24.60515 | -70.17014 | 31076 ft | 525 kts | 11° |
| 2026-05-05 00:16 | 24.67526 | -70.14805 | 31049 ft | 523 kts | 11° |
| 2026-05-05 00:17 | 24.74529 | -70.12594 | 31048 ft | 523 kts | 11° |
| 2026-05-05 00:17 | 24.81539 | -70.10382 | 31046 ft | 523 kts | 11° |
| 2026-05-05 00:18 | 24.88507 | -70.08183 | 31065 ft | 523 kts | 11° |
| 2026-05-05 00:18 | 24.95496 | -70.05974 | 31052 ft | 521 kts | 11° |
| 2026-05-05 00:19 | 25.02470 | -70.03768 | 31048 ft | 521 kts | 11° |
| 2026-05-05 00:19 | 25.09443 | -70.01559 | 31048 ft | 521 kts | 11° |
| 2026-05-05 00:20 | 25.16413 | -69.99349 | 31048 ft | 521 kts | 11° |
| 2026-05-05 00:20 | 25.23337 | -69.96929 | 31049 ft | 523 kts | 15° |
| 2026-05-05 00:21 | 25.30125 | -69.94129 | 31050 ft | 524 kts | 16° |
| 2026-05-05 00:21 | 25.36929 | -69.91253 | 31048 ft | 524 kts | 16° |
| 2026-05-05 00:22 | 25.43750 | -69.88405 | 31047 ft | 523 kts | 16° |
| 2026-05-05 00:22 | 25.50579 | -69.85574 | 31045 ft | 523 kts | 16° |
| 2026-05-05 00:23 | 25.57389 | -69.82751 | 31048 ft | 524 kts | 16° |
| 2026-05-05 00:23 | 25.64217 | -69.79915 | 31048 ft | 524 kts | 16° |
| 2026-05-05 00:24 | 25.71040 | -69.77077 | 31048 ft | 524 kts | 16° |
| 2026-05-05 00:24 | 25.77805 | -69.74258 | 31046 ft | 522 kts | 16° |
| 2026-05-05 00:25 | 25.84605 | -69.71422 | 31048 ft | 522 kts | 16° |
| 2026-05-05 00:25 | 25.91405 | -69.68583 | 31048 ft | 522 kts | 16° |
| 2026-05-05 00:26 | 25.98196 | -69.65744 | 31047 ft | 522 kts | 16° |
| 2026-05-05 00:26 | 26.04970 | -69.62899 | 31057 ft | 518 kts | 17° |
| 2026-05-05 00:27 | 26.11721 | -69.60065 | 31055 ft | 518 kts | 17° |
| 2026-05-05 00:27 | 26.18419 | -69.57254 | 31053 ft | 517 kts | 17° |
| 2026-05-05 00:28 | 26.25162 | -69.54422 | 31054 ft | 517 kts | 17° |
| 2026-05-05 00:28 | 26.31907 | -69.51585 | 31051 ft | 519 kts | 17° |
| 2026-05-05 00:29 | 26.38672 | -69.48736 | 31056 ft | 520 kts | 17° |
| 2026-05-05 00:29 | 26.45440 | -69.45881 | 31056 ft | 520 kts | 17° |
| 2026-05-05 00:30 | 26.52216 | -69.43020 | 31056 ft | 520 kts | 17° |
| 2026-05-05 00:30 | 26.58979 | -69.40160 | 31061 ft | 519 kts | 17° |
| 2026-05-05 00:31 | 26.65736 | -69.37300 | 31059 ft | 519 kts | 17° |
| 2026-05-05 00:31 | 26.72494 | -69.34435 | 31059 ft | 519 kts | 17° |
| 2026-05-05 00:32 | 26.79247 | -69.31565 | 31063 ft | 519 kts | 17° |
| 2026-05-05 00:32 | 26.86010 | -69.28683 | 31056 ft | 521 kts | 17° |
| 2026-05-05 00:33 | 26.92742 | -69.25816 | 31060 ft | 521 kts | 17° |
| 2026-05-05 00:33 | 26.99524 | -69.22927 | 31058 ft | 521 kts | 17° |
| 2026-05-05 00:34 | 27.06313 | -69.20031 | 31069 ft | 521 kts | 17° |
| 2026-05-05 00:34 | 27.13105 | -69.17129 | 31058 ft | 522 kts | 17° |
| 2026-05-05 00:35 | 27.19891 | -69.14227 | 31059 ft | 521 kts | 17° |
| 2026-05-05 00:35 | 27.26630 | -69.11341 | 31062 ft | 521 kts | 17° |
| 2026-05-05 00:36 | 27.33410 | -69.08433 | 31083 ft | 521 kts | 17° |
| 2026-05-05 00:36 | 27.40230 | -69.05507 | 31068 ft | 527 kts | 17° |
| 2026-05-05 00:37 | 27.47082 | -69.02561 | 31064 ft | 527 kts | 17° |
| 2026-05-05 00:37 | 27.53943 | -68.99605 | 31064 ft | 527 kts | 17° |
| 2026-05-05 00:38 | 27.60778 | -68.96649 | 31080 ft | 528 kts | 17° |
| 2026-05-05 00:38 | 27.66491 | -68.94179 | 31064 ft | 530 kts | 17° |
| 2026-05-05 00:39 | 27.73391 | -68.91196 | 31062 ft | 531 kts | 17° |
| 2026-05-05 00:39 | 27.80286 | -68.88211 | 31062 ft | 531 kts | 17° |
| 2026-05-05 00:40 | 27.87184 | -68.85222 | 31069 ft | 531 kts | 17° |
| 2026-05-05 00:40 | 27.94070 | -68.82234 | 31064 ft | 533 kts | 17° |
| 2026-05-05 00:41 | 28.00998 | -68.79224 | 31064 ft | 533 kts | 17° |
| 2026-05-05 00:41 | 28.07921 | -68.76211 | 31064 ft | 533 kts | 17° |
| 2026-05-05 00:42 | 28.14852 | -68.73191 | 31077 ft | 535 kts | 16° |
| 2026-05-05 00:42 | 28.21766 | -68.70175 | 31060 ft | 536 kts | 16° |
| 2026-05-05 00:43 | 28.28732 | -68.67131 | 31066 ft | 536 kts | 16° |
| 2026-05-05 00:43 | 28.35698 | -68.64077 | 31063 ft | 536 kts | 17° |
| 2026-05-05 00:44 | 28.42669 | -68.61014 | 31074 ft | 538 kts | 16° |
| 2026-05-05 00:44 | 28.49654 | -68.57946 | 31069 ft | 538 kts | 16° |
| 2026-05-05 00:45 | 28.56641 | -68.54875 | 31073 ft | 538 kts | 16° |
| 2026-05-05 00:45 | 28.63632 | -68.51799 | 31104 ft | 538 kts | 16° |
| 2026-05-05 00:46 | 28.70645 | -68.48710 | 31079 ft | 542 kts | 16° |
| 2026-05-05 00:46 | 28.77677 | -68.45606 | 31077 ft | 542 kts | 17° |
| 2026-05-05 00:47 | 28.84678 | -68.42511 | 31082 ft | 542 kts | 17° |
| 2026-05-05 00:47 | 28.91712 | -68.39397 | 31079 ft | 542 kts | 17° |
| 2026-05-05 00:48 | 28.98738 | -68.36282 | 31085 ft | 542 kts | 17° |
| 2026-05-05 00:48 | 29.05779 | -68.33157 | 31089 ft | 542 kts | 17° |
| 2026-05-05 00:49 | 29.12807 | -68.30028 | 31088 ft | 542 kts | 17° |
| 2026-05-05 00:49 | 29.19851 | -68.26882 | 31093 ft | 544 kts | 16° |
| 2026-05-05 00:50 | 29.26906 | -68.23733 | 31096 ft | 544 kts | 16° |
| 2026-05-05 00:50 | 29.33926 | -68.20598 | 31097 ft | 544 kts | 16° |
| 2026-05-05 00:51 | 29.40982 | -68.17442 | 31106 ft | 544 kts | 17° |
| 2026-05-05 00:51 | 29.48043 | -68.14280 | 31100 ft | 544 kts | 17° |
| 2026-05-05 00:52 | 29.55104 | -68.11112 | 31102 ft | 544 kts | 17° |
| 2026-05-05 00:52 | 29.62160 | -68.07943 | 31102 ft | 544 kts | 17° |
| 2026-05-05 00:53 | 29.69201 | -68.04775 | 31111 ft | 545 kts | 17° |
| 2026-05-05 00:53 | 29.76263 | -68.01593 | 31113 ft | 545 kts | 17° |
| 2026-05-05 00:54 | 29.83277 | -67.98427 | 31112 ft | 545 kts | 17° |
| 2026-05-05 00:54 | 29.90334 | -67.95233 | 31138 ft | 545 kts | 17° |
| 2026-05-05 00:55 | 29.97385 | -67.92031 | 31117 ft | 545 kts | 16° |
| 2026-05-05 00:55 | 30.04442 | -67.88828 | 31119 ft | 545 kts | 16° |
| 2026-05-05 00:56 | 30.11500 | -67.85623 | 31118 ft | 545 kts | 16° |
| 2026-05-05 00:56 | 30.18566 | -67.82411 | 31128 ft | 545 kts | 16° |
| 2026-05-05 00:57 | 30.25620 | -67.79198 | 31127 ft | 544 kts | 16° |
| 2026-05-05 00:57 | 30.32637 | -67.75997 | 31126 ft | 544 kts | 16° |
| 2026-05-05 00:58 | 30.39685 | -67.72777 | 31141 ft | 545 kts | 16° |
| 2026-05-05 00:58 | 30.46736 | -67.69551 | 31136 ft | 545 kts | 16° |
| 2026-05-05 00:59 | 30.53790 | -67.66317 | 31138 ft | 545 kts | 16° |
| 2026-05-05 00:59 | 30.60845 | -67.63079 | 31138 ft | 545 kts | 16° |
| 2026-05-05 01:00 | 30.67897 | -67.59833 | 31151 ft | 545 kts | 16° |
| 2026-05-05 01:00 | 30.74949 | -67.56574 | 31151 ft | 545 kts | 16° |
| 2026-05-05 01:01 | 30.82007 | -67.53315 | 31140 ft | 545 kts | 17° |
| 2026-05-05 01:01 | 30.88859 | -67.49580 | 31163 ft | 550 kts | 24° |
| 2026-05-05 01:02 | 30.95565 | -67.45229 | 31155 ft | 552 kts | 25° |
| 2026-05-05 01:02 | 31.02246 | -67.40820 | 31156 ft | 552 kts | 25° |
| 2026-05-05 01:03 | 31.08956 | -67.36468 | 31157 ft | 551 kts | 25° |
| 2026-05-05 01:03 | 31.15690 | -67.32134 | 31161 ft | 552 kts | 24° |
| 2026-05-05 01:04 | 31.22385 | -67.27822 | 31163 ft | 552 kts | 24° |
| 2026-05-05 01:04 | 31.32488 | -67.21293 | 31137 ft | 552 kts | 25° |
| 2026-05-05 01:05 | 31.39228 | -67.16928 | 31160 ft | 554 kts | 25° |
| 2026-05-05 01:05 | 31.45982 | -67.12544 | 31162 ft | 554 kts | 25° |
| 2026-05-05 01:06 | 31.52685 | -67.08186 | 31163 ft | 554 kts | 25° |
| 2026-05-05 01:06 | 31.59430 | -67.03788 | 31168 ft | 555 kts | 25° |
| 2026-05-05 01:07 | 31.66182 | -66.99369 | 31164 ft | 555 kts | 25° |
| 2026-05-05 01:07 | 31.72934 | -66.94952 | 31163 ft | 555 kts | 25° |
| 2026-05-05 01:08 | 31.79673 | -66.90542 | 31180 ft | 555 kts | 25° |
| 2026-05-05 01:08 | 31.86423 | -66.86119 | 31163 ft | 557 kts | 25° |
| 2026-05-05 01:09 | 31.93208 | -66.81665 | 31167 ft | 558 kts | 25° |
| 2026-05-05 01:09 | 31.99991 | -66.77203 | 31170 ft | 558 kts | 25° |
| 2026-05-05 01:10 | 32.06770 | -66.72736 | 31175 ft | 558 kts | 25° |
| 2026-05-05 01:10 | 32.13500 | -66.68295 | 31172 ft | 558 kts | 25° |
| 2026-05-05 01:11 | 32.20272 | -66.63818 | 31176 ft | 558 kts | 25° |
| 2026-05-05 01:11 | 32.27033 | -66.59340 | 31182 ft | 556 kts | 25° |
| 2026-05-05 01:12 | 32.33794 | -66.54846 | 31171 ft | 559 kts | 26° |
| 2026-05-05 01:12 | 32.40584 | -66.50320 | 31177 ft | 560 kts | 26° |
| 2026-05-05 01:13 | 32.47388 | -66.45785 | 31193 ft | 560 kts | 26° |
| 2026-05-05 01:13 | 32.54182 | -66.41254 | 31185 ft | 560 kts | 26° |
| 2026-05-05 01:14 | 32.60973 | -66.36718 | 31184 ft | 560 kts | 26° |
| 2026-05-05 01:14 | 32.67760 | -66.32176 | 31200 ft | 560 kts | 26° |
| 2026-05-05 01:15 | 32.74510 | -66.27651 | 31190 ft | 560 kts | 26° |
| 2026-05-05 01:15 | 32.81292 | -66.23097 | 31182 ft | 560 kts | 26° |
| 2026-05-05 01:16 | 32.88087 | -66.18526 | 31189 ft | 561 kts | 26° |
| 2026-05-05 01:16 | 32.94873 | -66.13952 | 31194 ft | 561 kts | 26° |
| 2026-05-05 01:17 | 33.01664 | -66.09367 | 31192 ft | 561 kts | 27° |
| 2026-05-05 01:17 | 33.08442 | -66.04765 | 31195 ft | 561 kts | 27° |
| 2026-05-05 01:18 | 33.15229 | -66.00154 | 31197 ft | 562 kts | 26° |
| 2026-05-05 01:18 | 33.22024 | -65.95539 | 31195 ft | 562 kts | 26° |
| 2026-05-05 01:19 | 33.28822 | -65.90917 | 31186 ft | 562 kts | 26° |
| 2026-05-05 01:19 | 33.35628 | -65.86282 | 31210 ft | 563 kts | 27° |
| 2026-05-05 01:20 | 33.42441 | -65.81632 | 31210 ft | 563 kts | 27° |
| 2026-05-05 01:20 | 33.49251 | -65.76975 | 31198 ft | 563 kts | 27° |
| 2026-05-05 01:21 | 33.56014 | -65.72342 | 31211 ft | 563 kts | 27° |
| 2026-05-05 01:21 | 33.62821 | -65.67670 | 31197 ft | 563 kts | 27° |
| 2026-05-05 01:22 | 33.69630 | -65.62989 | 31208 ft | 563 kts | 27° |
| 2026-05-05 01:22 | 33.76440 | -65.58294 | 31201 ft | 565 kts | 27° |
| 2026-05-05 01:23 | 33.83249 | -65.53577 | 31208 ft | 566 kts | 27° |
| 2026-05-05 01:23 | 33.90032 | -65.48877 | 31209 ft | 566 kts | 27° |
| 2026-05-05 01:24 | 33.96869 | -65.44141 | 31225 ft | 567 kts | 27° |
| 2026-05-05 01:24 | 34.03719 | -65.39389 | 31215 ft | 568 kts | 27° |
| 2026-05-05 01:25 | 34.09413 | -65.35431 | 31213 ft | 568 kts | 27° |
| 2026-05-05 01:25 | 34.16269 | -65.30657 | 31253 ft | 569 kts | 27° |
| 2026-05-05 01:26 | 34.23136 | -65.25868 | 31212 ft | 570 kts | 27° |
| 2026-05-05 01:26 | 34.30004 | -65.21066 | 31216 ft | 570 kts | 27° |
| 2026-05-05 01:27 | 34.36867 | -65.16258 | 31255 ft | 571 kts | 27° |
| 2026-05-05 01:27 | 34.43760 | -65.11421 | 31224 ft | 573 kts | 27° |
| 2026-05-05 01:28 | 34.50657 | -65.06562 | 31219 ft | 573 kts | 27° |
| 2026-05-05 01:28 | 34.57554 | -65.01684 | 31250 ft | 574 kts | 27° |
| 2026-05-05 01:29 | 34.64460 | -64.96804 | 31203 ft | 574 kts | 27° |
| 2026-05-05 01:29 | 34.71374 | -64.91916 | 31226 ft | 575 kts | 27° |
| 2026-05-05 01:30 | 34.78245 | -64.87048 | 31254 ft | 576 kts | 27° |
| 2026-05-05 01:30 | 34.85178 | -64.82126 | 31226 ft | 577 kts | 27° |
| 2026-05-05 01:31 | 34.92109 | -64.77196 | 31236 ft | 577 kts | 27° |
| 2026-05-05 01:31 | 34.99038 | -64.72257 | 31241 ft | 577 kts | 27° |
| 2026-05-05 01:32 | 35.05973 | -64.67304 | 31235 ft | 577 kts | 27° |
| 2026-05-05 01:32 | 35.12903 | -64.62345 | 31236 ft | 577 kts | 27° |
| 2026-05-05 01:33 | 35.19829 | -64.57375 | 31249 ft | 576 kts | 27° |
| 2026-05-05 01:33 | 35.26726 | -64.52398 | 31239 ft | 576 kts | 27° |
| 2026-05-05 01:34 | 35.33626 | -64.47420 | 31236 ft | 576 kts | 26° |
| 2026-05-05 01:34 | 35.40522 | -64.42431 | 31246 ft | 573 kts | 28° |
| 2026-05-05 01:35 | 35.46771 | -64.36305 | 31244 ft | 578 kts | 44° |
| 2026-05-05 01:35 | 35.52252 | -64.29106 | 31240 ft | 583 kts | 47° |
| 2026-05-05 01:36 | 35.57730 | -64.21743 | 31240 ft | 584 kts | 46° |
| 2026-05-05 01:36 | 35.63319 | -64.14496 | 31242 ft | 584 kts | 45° |
| 2026-05-05 01:37 | 35.68953 | -64.07300 | 31239 ft | 583 kts | 45° |
| 2026-05-05 01:37 | 35.74585 | -64.00095 | 31244 ft | 584 kts | 45° |
| 2026-05-05 01:38 | 35.80195 | -63.92882 | 31239 ft | 584 kts | 45° |
| 2026-05-05 01:38 | 35.85814 | -63.85635 | 31236 ft | 584 kts | 45° |
| 2026-05-05 01:39 | 35.91385 | -63.78435 | 31262 ft | 584 kts | 45° |
| 2026-05-05 01:39 | 35.96980 | -63.71188 | 31225 ft | 584 kts | 45° |
| 2026-05-05 01:40 | 36.02594 | -63.63885 | 31238 ft | 586 kts | 46° |
| 2026-05-05 01:40 | 36.08202 | -63.56552 | 31270 ft | 586 kts | 45° |
| 2026-05-05 01:41 | 36.13796 | -63.49243 | 31239 ft | 584 kts | 45° |
| 2026-05-05 01:41 | 36.19386 | -63.41941 | 31211 ft | 585 kts | 46° |
| 2026-05-05 01:42 | 36.24972 | -63.34629 | 31277 ft | 589 kts | 46° |
| 2026-05-05 01:42 | 36.30592 | -63.27253 | 31237 ft | 587 kts | 46° |
| 2026-05-05 01:43 | 36.36196 | -63.19880 | 31241 ft | 587 kts | 46° |
| 2026-05-05 01:43 | 36.41798 | -63.12494 | 31215 ft | 587 kts | 46° |
| 2026-05-05 01:44 | 36.47416 | -63.05072 | 31229 ft | 591 kts | 46° |
| 2026-05-05 01:44 | 36.53052 | -62.97607 | 31242 ft | 591 kts | 46° |
| 2026-05-05 01:45 | 36.58640 | -62.90180 | 31274 ft | 591 kts | 46° |
| 2026-05-05 01:45 | 36.64229 | -62.82701 | 31214 ft | 589 kts | 46° |
| 2026-05-05 01:46 | 36.69831 | -62.75212 | 31232 ft | 593 kts | 46° |
| 2026-05-05 01:46 | 36.75457 | -62.67692 | 31275 ft | 593 kts | 46° |
| 2026-05-05 01:47 | 36.81069 | -62.60176 | 31244 ft | 592 kts | 46° |
| 2026-05-05 01:47 | 36.86673 | -62.52652 | 31248 ft | 592 kts | 46° |
| 2026-05-05 01:48 | 36.92293 | -62.45089 | 31253 ft | 595 kts | 46° |
| 2026-05-05 01:48 | 36.97896 | -62.37529 | 31245 ft | 595 kts | 46° |
| 2026-05-05 01:49 | 37.03523 | -62.29919 | 31240 ft | 595 kts | 46° |
| 2026-05-05 01:49 | 37.09141 | -62.22304 | 31213 ft | 594 kts | 46° |
| 2026-05-05 01:50 | 37.14766 | -62.14657 | 31242 ft | 597 kts | 47° |
| 2026-05-05 01:50 | 37.20374 | -62.06976 | 31241 ft | 597 kts | 47° |
| 2026-05-05 01:51 | 37.25991 | -61.99284 | 31244 ft | 597 kts | 47° |
| 2026-05-05 01:51 | 37.31609 | -61.91596 | 31210 ft | 597 kts | 47° |
| 2026-05-05 01:52 | 37.37219 | -61.83906 | 31237 ft | 597 kts | 47° |
| 2026-05-05 01:52 | 37.42835 | -61.76185 | 31245 ft | 599 kts | 47° |
| 2026-05-05 01:53 | 37.48408 | -61.68505 | 31238 ft | 599 kts | 47° |
| 2026-05-05 01:53 | 37.54019 | -61.60752 | 31296 ft | 599 kts | 47° |
| 2026-05-05 01:54 | 37.59625 | -61.52988 | 31238 ft | 598 kts | 47° |
| 2026-05-05 01:54 | 37.65225 | -61.45215 | 31238 ft | 599 kts | 47° |
| 2026-05-05 01:55 | 37.70817 | -61.37427 | 31250 ft | 598 kts | 47° |
| 2026-05-05 01:55 | 37.76382 | -61.29620 | 31235 ft | 600 kts | 47° |
| 2026-05-05 01:56 | 37.81981 | -61.21766 | 31254 ft | 601 kts | 47° |
| 2026-05-05 01:56 | 37.87585 | -61.13907 | 31249 ft | 600 kts | 47° |
| 2026-05-05 01:57 | 37.93172 | -61.06059 | 31244 ft | 599 kts | 47° |
| 2026-05-05 01:57 | 37.98762 | -60.98188 | 31248 ft | 603 kts | 47° |
| 2026-05-05 01:58 | 38.04363 | -60.90278 | 31246 ft | 603 kts | 47° |
| 2026-05-05 01:58 | 38.09960 | -60.82354 | 31244 ft | 603 kts | 47° |
| 2026-05-05 01:59 | 38.15555 | -60.74413 | 31236 ft | 603 kts | 47° |
| 2026-05-05 01:59 | 38.21118 | -60.66499 | 31238 ft | 605 kts | 47° |
| 2026-05-05 02:00 | 38.26723 | -60.58497 | 31240 ft | 606 kts | 47° |
| 2026-05-05 02:00 | 38.32312 | -60.50455 | 31248 ft | 605 kts | 47° |
| 2026-05-05 02:01 | 38.37898 | -60.42425 | 31221 ft | 606 kts | 47° |
| 2026-05-05 02:01 | 38.43474 | -60.34412 | 31238 ft | 607 kts | 47° |
| 2026-05-05 02:02 | 38.49089 | -60.26322 | 31238 ft | 608 kts | 47° |
| 2026-05-05 02:02 | 38.54632 | -60.18162 | 31234 ft | 608 kts | 53° |
| 2026-05-05 02:03 | 38.59028 | -60.08974 | 31254 ft | 606 kts | 66° |
| 2026-05-05 02:03 | 38.62649 | -59.99322 | 31239 ft | 606 kts | 68° |
| 2026-05-05 02:04 | 38.66315 | -59.89592 | 31238 ft | 607 kts | 66° |
| 2026-05-05 02:04 | 38.70106 | -59.79953 | 31235 ft | 605 kts | 66° |
| 2026-05-05 02:05 | 38.73928 | -59.70345 | 31241 ft | 605 kts | 66° |
| 2026-05-05 02:05 | 38.77736 | -59.60726 | 31241 ft | 605 kts | 66° |
| 2026-05-05 02:06 | 38.81519 | -59.51107 | 31268 ft | 603 kts | 66° |
| 2026-05-05 02:06 | 38.85280 | -59.41505 | 31243 ft | 606 kts | 66° |
| 2026-05-05 02:07 | 38.89056 | -59.31837 | 31241 ft | 606 kts | 66° |
| 2026-05-05 02:07 | 38.92820 | -59.22167 | 31282 ft | 603 kts | 67° |
| 2026-05-05 02:08 | 38.96542 | -59.12490 | 31246 ft | 607 kts | 67° |
| 2026-05-05 02:08 | 39.00291 | -59.02749 | 31216 ft | 607 kts | 67° |
| 2026-05-05 02:09 | 39.04031 | -58.93051 | 31264 ft | 604 kts | 67° |
| 2026-05-05 02:09 | 39.07746 | -58.83393 | 31240 ft | 606 kts | 67° |
| 2026-05-05 02:10 | 39.11477 | -58.73660 | 31241 ft | 607 kts | 67° |
| 2026-05-05 02:10 | 39.15205 | -58.63904 | 31281 ft | 607 kts | 67° |
| 2026-05-05 02:11 | 39.18936 | -58.54102 | 31241 ft | 610 kts | 67° |
| 2026-05-05 02:11 | 39.22662 | -58.44288 | 31222 ft | 609 kts | 67° |
| 2026-05-05 02:12 | 39.27597 | -58.31236 | 31249 ft | 609 kts | 67° |
| 2026-05-05 02:13 | 39.31885 | -58.19782 | 31192 ft | 610 kts | 68° |
| 2026-05-05 02:13 | 39.35551 | -58.09935 | 31230 ft | 607 kts | 68° |
| 2026-05-05 02:14 | 39.38602 | -58.01758 | 31251 ft | 609 kts | 67° |
| 2026-05-05 02:14 | 39.42292 | -57.91864 | 31200 ft | 610 kts | 67° |
| 2026-05-05 02:15 | 39.45964 | -57.81995 | 31237 ft | 607 kts | 68° |
| 2026-05-05 02:15 | 39.49625 | -57.72112 | 31243 ft | 610 kts | 67° |
| 2026-05-05 02:16 | 39.53287 | -57.62190 | 31222 ft | 610 kts | 68° |
| 2026-05-05 02:16 | 39.56913 | -57.52341 | 31231 ft | 608 kts | 68° |
| 2026-05-05 02:17 | 39.60553 | -57.42412 | 31244 ft | 611 kts | 68° |
| 2026-05-05 02:17 | 39.64203 | -57.32425 | 31229 ft | 610 kts | 68° |
| 2026-05-05 02:18 | 39.67806 | -57.22466 | 31239 ft | 609 kts | 68° |
| 2026-05-05 02:18 | 39.71378 | -57.12542 | 31244 ft | 612 kts | 68° |
| 2026-05-05 02:19 | 39.74985 | -57.02554 | 31241 ft | 609 kts | 68° |
| 2026-05-05 02:19 | 39.78583 | -56.92581 | 31239 ft | 609 kts | 68° |
| 2026-05-05 02:20 | 39.82169 | -56.82606 | 31214 ft | 608 kts | 68° |
| 2026-05-05 02:20 | 39.85735 | -56.72648 | 31239 ft | 606 kts | 68° |
| 2026-05-05 02:21 | 39.89290 | -56.62685 | 31250 ft | 608 kts | 68° |
| 2026-05-05 02:21 | 39.92845 | -56.52684 | 31246 ft | 609 kts | 68° |
| 2026-05-05 02:22 | 39.96375 | -56.42724 | 31239 ft | 609 kts | 68° |
| 2026-05-05 02:22 | 39.99910 | -56.32716 | 31243 ft | 607 kts | 68° |
| 2026-05-05 02:23 | 40.03398 | -56.22716 | 31243 ft | 607 kts | 68° |
| 2026-05-05 02:23 | 40.06889 | -56.12684 | 31241 ft | 607 kts | 68° |
| 2026-05-05 02:24 | 40.10393 | -56.02644 | 31241 ft | 608 kts | 68° |
| 2026-05-05 02:24 | 40.13896 | -55.92592 | 31241 ft | 608 kts | 68° |
| 2026-05-05 02:25 | 40.17396 | -55.82513 | 31251 ft | 608 kts | 68° |
| 2026-05-05 02:25 | 40.20885 | -55.72423 | 31243 ft | 609 kts | 68° |
| 2026-05-05 02:26 | 40.24366 | -55.62321 | 31229 ft | 608 kts | 68° |
| 2026-05-05 02:26 | 40.27818 | -55.52267 | 31244 ft | 608 kts | 68° |
| 2026-05-05 02:27 | 40.31282 | -55.42141 | 31239 ft | 609 kts | 68° |
| 2026-05-05 02:27 | 40.34735 | -55.32005 | 31238 ft | 609 kts | 69° |
| 2026-05-05 02:28 | 40.38153 | -55.21837 | 31238 ft | 609 kts | 69° |
| 2026-05-05 02:28 | 40.41557 | -55.11712 | 31237 ft | 610 kts | 68° |
| 2026-05-05 02:29 | 40.44989 | -55.01528 | 31236 ft | 610 kts | 68° |
| 2026-05-05 02:29 | 40.48419 | -54.91329 | 31233 ft | 610 kts | 69° |
| 2026-05-05 02:30 | 40.51839 | -54.81117 | 31234 ft | 610 kts | 69° |
| 2026-05-05 02:30 | 40.55250 | -54.70893 | 31234 ft | 610 kts | 69° |
| 2026-05-05 02:31 | 40.58631 | -54.60717 | 31238 ft | 611 kts | 69° |
| 2026-05-05 02:31 | 40.62024 | -54.50471 | 31230 ft | 611 kts | 69° |
| 2026-05-05 02:32 | 40.65409 | -54.40209 | 31231 ft | 611 kts | 69° |
| 2026-05-05 02:32 | 40.68777 | -54.29938 | 31231 ft | 611 kts | 69° |
| 2026-05-05 02:33 | 40.72109 | -54.19648 | 31229 ft | 611 kts | 69° |
| 2026-05-05 02:33 | 40.75450 | -54.09352 | 31224 ft | 608 kts | 69° |
| 2026-05-05 02:34 | 40.78782 | -53.99103 | 31228 ft | 608 kts | 69° |
| 2026-05-05 02:34 | 40.82107 | -53.88842 | 31229 ft | 608 kts | 69° |
| 2026-05-05 02:35 | 40.85403 | -53.78627 | 31233 ft | 608 kts | 69° |
| 2026-05-05 02:35 | 40.88712 | -53.68330 | 31227 ft | 609 kts | 69° |
| 2026-05-05 02:36 | 40.92011 | -53.58023 | 31223 ft | 609 kts | 69° |
| 2026-05-05 02:36 | 40.95302 | -53.47705 | 31228 ft | 609 kts | 69° |
| 2026-05-05 02:37 | 40.98591 | -53.37353 | 31226 ft | 609 kts | 69° |
| 2026-05-05 02:37 | 41.01846 | -53.27032 | 31224 ft | 606 kts | 69° |
| 2026-05-05 02:38 | 41.05030 | -53.16817 | 31231 ft | 606 kts | 69° |
| 2026-05-05 02:38 | 41.08257 | -53.06498 | 31227 ft | 606 kts | 69° |
| 2026-05-05 02:39 | 41.11488 | -52.96174 | 31230 ft | 606 kts | 69° |
| 2026-05-05 02:39 | 41.14716 | -52.85828 | 31233 ft | 607 kts | 69° |
| 2026-05-05 02:40 | 41.17938 | -52.75454 | 31228 ft | 608 kts | 69° |
| 2026-05-05 02:40 | 41.21155 | -52.65054 | 31229 ft | 608 kts | 70° |
| 2026-05-05 02:41 | 41.24337 | -52.54725 | 31211 ft | 607 kts | 69° |
| 2026-05-05 02:41 | 41.27512 | -52.44383 | 31230 ft | 604 kts | 69° |
| 2026-05-05 02:42 | 41.30673 | -52.34043 | 31233 ft | 603 kts | 70° |
| 2026-05-05 02:42 | 41.33814 | -52.23666 | 31234 ft | 604 kts | 70° |
| 2026-05-05 02:43 | 41.36933 | -52.13266 | 31232 ft | 604 kts | 70° |
| 2026-05-05 02:43 | 41.40059 | -52.02882 | 31233 ft | 604 kts | 70° |
| 2026-05-05 02:44 | 41.43167 | -51.92561 | 31235 ft | 604 kts | 70° |
| 2026-05-05 02:44 | 41.46287 | -51.82159 | 31233 ft | 604 kts | 70° |
| 2026-05-05 02:45 | 41.49395 | -51.71752 | 31228 ft | 603 kts | 70° |
| 2026-05-05 02:45 | 41.52488 | -51.61352 | 31237 ft | 603 kts | 70° |
| 2026-05-05 02:46 | 41.55571 | -51.50941 | 31237 ft | 603 kts | 70° |
| 2026-05-05 02:46 | 41.58648 | -51.40510 | 31236 ft | 603 kts | 70° |
| 2026-05-05 02:47 | 41.61713 | -51.30078 | 31240 ft | 603 kts | 70° |
| 2026-05-05 02:47 | 41.64750 | -51.19623 | 31238 ft | 603 kts | 70° |
| 2026-05-05 02:48 | 41.67751 | -51.09210 | 31235 ft | 603 kts | 70° |
| 2026-05-05 02:48 | 41.70779 | -50.98745 | 31235 ft | 603 kts | 70° |
| 2026-05-05 02:49 | 41.73805 | -50.88284 | 31234 ft | 601 kts | 70° |
| 2026-05-05 02:49 | 41.76814 | -50.77844 | 31237 ft | 600 kts | 70° |
| 2026-05-05 02:50 | 41.79803 | -50.67419 | 31234 ft | 600 kts | 70° |
| 2026-05-05 02:50 | 41.82786 | -50.56970 | 31240 ft | 600 kts | 70° |
| 2026-05-05 02:51 | 41.85758 | -50.46517 | 31246 ft | 600 kts | 70° |
| 2026-05-05 02:51 | 41.88721 | -50.36054 | 31237 ft | 601 kts | 70° |
| 2026-05-05 02:52 | 41.91682 | -50.25555 | 31243 ft | 601 kts | 70° |
| 2026-05-05 02:52 | 41.94592 | -50.15108 | 31243 ft | 601 kts | 71° |
| 2026-05-05 02:53 | 41.97495 | -50.04610 | 31241 ft | 600 kts | 71° |
| 2026-05-05 02:53 | 42.00413 | -49.94100 | 31242 ft | 600 kts | 71° |
| 2026-05-05 02:54 | 42.03328 | -49.83600 | 31239 ft | 599 kts | 71° |
| 2026-05-05 02:54 | 42.06234 | -49.73084 | 31247 ft | 600 kts | 71° |
| 2026-05-05 02:55 | 42.09134 | -49.62540 | 31244 ft | 600 kts | 71° |
| 2026-05-05 02:55 | 42.12026 | -49.51979 | 31246 ft | 600 kts | 71° |
| 2026-05-05 02:56 | 42.14906 | -49.41418 | 31249 ft | 601 kts | 71° |
| 2026-05-05 02:56 | 42.17759 | -49.30907 | 31241 ft | 601 kts | 71° |
| 2026-05-05 02:57 | 42.20492 | -49.20256 | 31224 ft | 597 kts | 73° |
| 2026-05-05 02:57 | 42.23031 | -49.09619 | 31245 ft | 595 kts | 73° |
| 2026-05-05 02:58 | 42.25561 | -48.98962 | 31243 ft | 595 kts | 73° |
| 2026-05-05 02:58 | 42.28105 | -48.88324 | 31246 ft | 595 kts | 73° |
| 2026-05-05 02:59 | 42.30649 | -48.77681 | 31251 ft | 596 kts | 73° |
| 2026-05-05 02:59 | 42.33187 | -48.67009 | 31248 ft | 597 kts | 73° |
| 2026-05-05 03:00 | 42.35702 | -48.56379 | 31251 ft | 597 kts | 73° |
| 2026-05-05 03:00 | 42.38222 | -48.45673 | 31217 ft | 597 kts | 73° |
| 2026-05-05 03:01 | 42.40731 | -48.34960 | 31246 ft | 597 kts | 73° |
| 2026-05-05 03:01 | 42.43228 | -48.24248 | 31252 ft | 596 kts | 74° |
| 2026-05-05 03:02 | 42.45690 | -48.13525 | 31251 ft | 596 kts | 74° |
| 2026-05-05 03:02 | 42.47721 | -48.04603 | 31257 ft | 597 kts | 74° |
| 2026-05-05 03:03 | 42.50183 | -47.93846 | 31252 ft | 597 kts | 74° |
| 2026-05-05 03:03 | 42.52646 | -47.83095 | 31251 ft | 597 kts | 74° |
| 2026-05-05 03:04 | 42.55101 | -47.72324 | 31252 ft | 597 kts | 74° |
| 2026-05-05 03:04 | 42.57542 | -47.61555 | 31225 ft | 596 kts | 74° |
| 2026-05-05 03:05 | 42.59964 | -47.50814 | 31251 ft | 595 kts | 74° |
| 2026-05-05 03:05 | 42.62376 | -47.40063 | 31255 ft | 595 kts | 74° |
| 2026-05-05 03:06 | 42.64779 | -47.29300 | 31245 ft | 595 kts | 75° |
| 2026-05-05 03:06 | 42.67157 | -47.18596 | 31246 ft | 595 kts | 75° |
| 2026-05-05 03:07 | 42.69524 | -47.07807 | 31257 ft | 595 kts | 75° |
| 2026-05-05 03:07 | 42.71864 | -46.96997 | 31254 ft | 595 kts | 75° |
| 2026-05-05 03:08 | 42.74211 | -46.86215 | 31260 ft | 595 kts | 75° |
| 2026-05-05 03:08 | 42.76566 | -46.75407 | 31244 ft | 595 kts | 75° |
| 2026-05-05 03:09 | 42.78911 | -46.64594 | 31253 ft | 596 kts | 75° |
| 2026-05-05 03:09 | 42.81246 | -46.53764 | 31246 ft | 596 kts | 75° |
| 2026-05-05 03:10 | 42.83569 | -46.42931 | 31249 ft | 596 kts | 75° |
| 2026-05-05 03:10 | 42.85870 | -46.32141 | 31252 ft | 597 kts | 75° |
| 2026-05-05 03:11 | 42.88181 | -46.21251 | 31245 ft | 597 kts | 75° |
| 2026-05-05 03:11 | 42.90479 | -46.10364 | 31246 ft | 597 kts | 75° |
| 2026-05-05 03:12 | 42.92749 | -45.99474 | 31233 ft | 596 kts | 75° |
| 2026-05-05 03:12 | 42.94988 | -45.88572 | 31245 ft | 597 kts | 75° |
| 2026-05-05 03:13 | 42.97229 | -45.77719 | 31247 ft | 597 kts | 75° |
| 2026-05-05 03:13 | 42.99485 | -45.66811 | 31245 ft | 596 kts | 75° |
| 2026-05-05 03:14 | 43.01733 | -45.55890 | 31238 ft | 598 kts | 75° |
| 2026-05-05 03:14 | 43.03971 | -45.44947 | 31246 ft | 598 kts | 75° |
| 2026-05-05 03:15 | 43.06200 | -45.33988 | 31237 ft | 598 kts | 75° |
| 2026-05-05 03:15 | 43.08418 | -45.23020 | 31240 ft | 599 kts | 75° |
| 2026-05-05 03:16 | 43.10625 | -45.12045 | 31226 ft | 597 kts | 75° |
| 2026-05-05 03:16 | 43.12804 | -45.01154 | 31234 ft | 596 kts | 75° |
| 2026-05-05 03:17 | 43.14971 | -44.90184 | 31235 ft | 596 kts | 75° |
| 2026-05-05 03:17 | 43.17105 | -44.79199 | 31230 ft | 596 kts | 75° |
| 2026-05-05 03:18 | 43.19251 | -44.68222 | 31228 ft | 596 kts | 75° |
| 2026-05-05 03:18 | 43.21399 | -44.57251 | 31228 ft | 596 kts | 75° |
| 2026-05-05 03:19 | 43.24586 | -44.40866 | 31224 ft | 595 kts | 75° |
| 2026-05-05 03:19 | 43.26701 | -44.29901 | 31212 ft | 593 kts | 75° |
| 2026-05-05 03:20 | 43.28801 | -44.18953 | 31222 ft | 592 kts | 75° |
| 2026-05-05 03:20 | 43.30888 | -44.08012 | 31217 ft | 592 kts | 75° |
| 2026-05-05 03:21 | 43.32965 | -43.97064 | 31219 ft | 592 kts | 75° |
| 2026-05-05 03:21 | 43.35030 | -43.86109 | 31219 ft | 592 kts | 76° |
| 2026-05-05 03:22 | 43.37056 | -43.75118 | 31218 ft | 593 kts | 76° |
| 2026-05-05 03:22 | 43.39077 | -43.64118 | 31217 ft | 593 kts | 75° |
| 2026-05-05 03:23 | 43.41093 | -43.53213 | 31216 ft | 593 kts | 75° |
| 2026-05-05 03:23 | 43.43119 | -43.42231 | 31215 ft | 591 kts | 75° |
| 2026-05-05 03:24 | 43.45131 | -43.31254 | 31214 ft | 591 kts | 75° |
| 2026-05-05 03:24 | 43.47132 | -43.20270 | 31211 ft | 591 kts | 75° |
| 2026-05-05 03:25 | 43.49120 | -43.09284 | 31211 ft | 591 kts | 75° |
| 2026-05-05 03:25 | 43.51082 | -42.98379 | 31208 ft | 590 kts | 75° |
| 2026-05-05 03:26 | 43.53045 | -42.87402 | 31203 ft | 590 kts | 75° |
| 2026-05-05 03:26 | 43.54999 | -42.76413 | 31200 ft | 590 kts | 75° |
| 2026-05-05 03:27 | 43.56912 | -42.65414 | 31201 ft | 590 kts | 75° |
| 2026-05-05 03:27 | 43.58808 | -42.54429 | 31197 ft | 587 kts | 75° |
| 2026-05-05 03:28 | 43.60712 | -42.43484 | 31198 ft | 586 kts | 75° |
| 2026-05-05 03:28 | 43.62603 | -42.32599 | 31199 ft | 586 kts | 75° |
| 2026-05-05 03:29 | 43.64499 | -42.21618 | 31197 ft | 587 kts | 75° |
| 2026-05-05 03:29 | 43.66383 | -42.10628 | 31190 ft | 587 kts | 75° |
| 2026-05-05 03:30 | 43.68257 | -41.99622 | 31193 ft | 588 kts | 75° |
| 2026-05-05 03:30 | 43.70104 | -41.88702 | 31185 ft | 587 kts | 75° |
| 2026-05-05 03:31 | 43.71952 | -41.77715 | 31190 ft | 586 kts | 75° |
| 2026-05-05 03:31 | 43.73785 | -41.66745 | 31185 ft | 583 kts | 75° |
| 2026-05-05 03:32 | 43.75581 | -41.55794 | 31197 ft | 582 kts | 75° |
| 2026-05-05 03:32 | 43.77332 | -41.44956 | 31189 ft | 580 kts | 75° |
| 2026-05-05 03:33 | 43.79107 | -41.34064 | 31195 ft | 580 kts | 75° |
| 2026-05-05 03:33 | 43.80884 | -41.23168 | 31204 ft | 580 kts | 75° |
| 2026-05-05 03:34 | 43.82648 | -41.12282 | 31206 ft | 576 kts | 75° |
| 2026-05-05 03:34 | 43.84387 | -41.01467 | 31205 ft | 575 kts | 75° |
| 2026-05-05 03:35 | 43.86119 | -40.90631 | 31209 ft | 575 kts | 75° |
| 2026-05-05 03:35 | 43.87824 | -40.79886 | 31222 ft | 571 kts | 75° |
| 2026-05-05 03:36 | 43.89514 | -40.69162 | 31217 ft | 569 kts | 75° |
| 2026-05-05 03:36 | 43.91195 | -40.58438 | 31218 ft | 569 kts | 75° |
| 2026-05-05 03:37 | 43.92860 | -40.47705 | 31226 ft | 569 kts | 76° |
| 2026-05-05 03:37 | 43.94482 | -40.36950 | 31226 ft | 569 kts | 76° |
| 2026-05-05 03:38 | 43.96108 | -40.26224 | 31231 ft | 569 kts | 76° |
| 2026-05-05 03:38 | 43.97747 | -40.15469 | 31233 ft | 569 kts | 76° |
| 2026-05-05 03:39 | 43.99381 | -40.04705 | 31239 ft | 568 kts | 76° |
| 2026-05-05 03:39 | 44.01384 | -39.94195 | 31237 ft | 558 kts | 69° |
| 2026-05-05 03:40 | 44.03928 | -39.84117 | 31240 ft | 555 kts | 66° |
| 2026-05-05 03:40 | 44.06564 | -39.74010 | 31245 ft | 555 kts | 67° |
| 2026-05-05 03:41 | 44.09122 | -39.63898 | 31253 ft | 553 kts | 68° |
| 2026-05-05 03:41 | 44.11628 | -39.53795 | 31250 ft | 552 kts | 68° |
| 2026-05-05 03:42 | 44.14122 | -39.43677 | 31256 ft | 552 kts | 68° |
| 2026-05-05 03:42 | 44.16608 | -39.33562 | 31253 ft | 550 kts | 68° |
| 2026-05-05 03:43 | 44.19057 | -39.23559 | 31255 ft | 549 kts | 68° |
| 2026-05-05 03:43 | 44.21513 | -39.13490 | 31260 ft | 549 kts | 68° |
| 2026-05-05 03:44 | 44.23965 | -39.03389 | 31265 ft | 549 kts | 69° |
| 2026-05-05 03:44 | 44.26396 | -38.93325 | 31268 ft | 546 kts | 69° |
| 2026-05-05 03:45 | 44.28765 | -38.83330 | 31268 ft | 545 kts | 69° |
| 2026-05-05 03:45 | 44.31146 | -38.73268 | 31272 ft | 545 kts | 69° |
| 2026-05-05 03:46 | 44.33535 | -38.63219 | 31273 ft | 543 kts | 69° |
| 2026-05-05 03:46 | 44.35910 | -38.53217 | 31277 ft | 542 kts | 69° |
| 2026-05-05 03:47 | 44.38269 | -38.43239 | 31280 ft | 539 kts | 69° |
| 2026-05-05 03:47 | 44.40615 | -38.33269 | 31293 ft | 538 kts | 69° |
| 2026-05-05 03:48 | 44.42923 | -38.23410 | 31295 ft | 536 kts | 69° |
| 2026-05-05 03:48 | 44.45237 | -38.13487 | 31292 ft | 536 kts | 69° |
| 2026-05-05 03:49 | 44.47543 | -38.03549 | 31292 ft | 536 kts | 69° |
| 2026-05-05 03:49 | 44.49836 | -37.93622 | 31296 ft | 533 kts | 70° |
| 2026-05-05 03:50 | 44.52101 | -37.83769 | 31301 ft | 531 kts | 70° |
| 2026-05-05 03:50 | 44.54330 | -37.73898 | 31295 ft | 531 kts | 70° |
| 2026-05-05 03:51 | 44.56538 | -37.64070 | 31304 ft | 531 kts | 70° |
| 2026-05-05 03:51 | 44.58762 | -37.54229 | 31312 ft | 528 kts | 70° |
| 2026-05-05 03:52 | 44.60982 | -37.44405 | 31310 ft | 528 kts | 70° |
| 2026-05-05 03:52 | 44.62820 | -37.36236 | 31308 ft | 528 kts | 71° |
| 2026-05-05 03:53 | 44.65019 | -37.26423 | 31330 ft | 527 kts | 71° |
| 2026-05-05 03:53 | 44.67201 | -37.16631 | 31317 ft | 525 kts | 71° |
| 2026-05-05 03:54 | 44.69375 | -37.06832 | 31315 ft | 525 kts | 71° |
| 2026-05-05 03:54 | 44.71540 | -36.97029 | 31321 ft | 525 kts | 71° |
| 2026-05-05 03:55 | 44.73697 | -36.87217 | 31322 ft | 525 kts | 71° |
| 2026-05-05 03:55 | 44.75847 | -36.77390 | 31328 ft | 525 kts | 71° |
| 2026-05-05 03:56 | 44.77967 | -36.67612 | 31333 ft | 525 kts | 72° |
| 2026-05-05 03:56 | 44.80064 | -36.57752 | 31345 ft | 525 kts | 72° |
| 2026-05-05 03:57 | 44.82163 | -36.47932 | 31330 ft | 522 kts | 72° |
| 2026-05-05 03:57 | 44.84264 | -36.38137 | 31336 ft | 522 kts | 72° |
| 2026-05-05 03:58 | 44.86365 | -36.28316 | 31337 ft | 522 kts | 72° |
| 2026-05-05 03:58 | 44.88437 | -36.18577 | 31344 ft | 521 kts | 72° |
| 2026-05-05 03:59 | 44.90506 | -36.08802 | 31347 ft | 519 kts | 72° |
| 2026-05-05 03:59 | 44.92566 | -35.99025 | 31347 ft | 519 kts | 73° |
| 2026-05-05 04:00 | 44.94617 | -35.89244 | 31345 ft | 519 kts | 73° |
| 2026-05-05 04:00 | 44.96657 | -35.79467 | 31350 ft | 518 kts | 73° |
| 2026-05-05 04:01 | 44.98681 | -35.69717 | 31350 ft | 517 kts | 73° |
| 2026-05-05 04:01 | 45.00698 | -35.59959 | 31349 ft | 517 kts | 73° |
| 2026-05-05 04:02 | 45.02678 | -35.50177 | 31351 ft | 517 kts | 73° |
| 2026-05-05 04:02 | 45.04651 | -35.40378 | 31360 ft | 518 kts | 73° |
| 2026-05-05 04:03 | 45.06628 | -35.30635 | 31361 ft | 518 kts | 73° |
| 2026-05-05 04:03 | 45.08618 | -35.20824 | 31363 ft | 518 kts | 73° |
| 2026-05-05 04:04 | 45.10597 | -35.11017 | 31374 ft | 518 kts | 73° |
| 2026-05-05 04:04 | 45.12565 | -35.01213 | 31366 ft | 517 kts | 73° |
| 2026-05-05 04:05 | 45.14524 | -34.91401 | 31369 ft | 517 kts | 73° |
| 2026-05-05 04:05 | 45.16473 | -34.81592 | 31374 ft | 517 kts | 73° |
| 2026-05-05 04:06 | 45.18412 | -34.71782 | 31376 ft | 516 kts | 73° |
| 2026-05-05 04:06 | 45.20326 | -34.62052 | 31376 ft | 515 kts | 73° |
| 2026-05-05 04:07 | 45.22245 | -34.52250 | 31379 ft | 515 kts | 73° |
| 2026-05-05 04:07 | 45.24148 | -34.42438 | 31379 ft | 515 kts | 73° |
| 2026-05-05 04:08 | 45.26004 | -34.32644 | 31383 ft | 515 kts | 73° |
| 2026-05-05 04:08 | 45.27875 | -34.22835 | 31387 ft | 514 kts | 73° |
| 2026-05-05 04:09 | 45.29741 | -34.13093 | 31384 ft | 514 kts | 73° |
| 2026-05-05 04:09 | 45.31615 | -34.03281 | 31387 ft | 514 kts | 73° |
| 2026-05-05 04:10 | 45.33477 | -33.93471 | 31387 ft | 513 kts | 72° |
| 2026-05-05 04:10 | 45.35328 | -33.83672 | 31392 ft | 513 kts | 72° |
| 2026-05-05 04:11 | 45.37170 | -33.73865 | 31395 ft | 513 kts | 73° |
| 2026-05-05 04:11 | 45.39003 | -33.64058 | 31407 ft | 512 kts | 72° |
| 2026-05-05 04:12 | 45.40813 | -33.54322 | 31398 ft | 511 kts | 73° |
| 2026-05-05 04:12 | 45.42624 | -33.44527 | 31400 ft | 511 kts | 73° |
| 2026-05-05 04:13 | 45.44428 | -33.34725 | 31403 ft | 511 kts | 73° |
| 2026-05-05 04:13 | 45.46201 | -33.24913 | 31403 ft | 512 kts | 73° |
| 2026-05-05 04:14 | 45.47943 | -33.15136 | 31406 ft | 512 kts | 73° |
| 2026-05-05 04:14 | 45.49708 | -33.05314 | 31406 ft | 512 kts | 73° |
| 2026-05-05 04:15 | 45.51480 | -32.95474 | 31408 ft | 512 kts | 73° |
| 2026-05-05 04:15 | 45.53240 | -32.85656 | 31407 ft | 509 kts | 73° |
| 2026-05-05 04:16 | 45.54985 | -32.75860 | 31408 ft | 508 kts | 73° |
| 2026-05-05 04:16 | 45.56718 | -32.66077 | 31410 ft | 508 kts | 73° |
| 2026-05-05 04:17 | 45.58432 | -32.56354 | 31412 ft | 508 kts | 73° |
| 2026-05-05 04:17 | 45.60149 | -32.46553 | 31415 ft | 508 kts | 73° |
| 2026-05-05 04:18 | 45.61857 | -32.36747 | 31414 ft | 508 kts | 73° |
| 2026-05-05 04:18 | 45.63556 | -32.26952 | 31414 ft | 509 kts | 72° |
| 2026-05-05 04:19 | 45.65242 | -32.17169 | 31414 ft | 509 kts | 73° |
| 2026-05-05 04:19 | 45.66897 | -32.07310 | 31417 ft | 509 kts | 72° |
| 2026-05-05 04:20 | 45.68543 | -31.97464 | 31415 ft | 509 kts | 72° |
| 2026-05-05 04:20 | 45.70205 | -31.87610 | 31415 ft | 509 kts | 72° |
| 2026-05-05 04:21 | 45.71855 | -31.77824 | 31418 ft | 509 kts | 72° |
| 2026-05-05 04:21 | 45.73507 | -31.67968 | 31422 ft | 509 kts | 72° |
| 2026-05-05 04:22 | 45.75152 | -31.58097 | 31415 ft | 509 kts | 72° |
| 2026-05-05 04:22 | 45.76787 | -31.48224 | 31424 ft | 509 kts | 72° |
| 2026-05-05 04:23 | 45.78409 | -31.38372 | 31424 ft | 509 kts | 72° |
| 2026-05-05 04:23 | 45.80025 | -31.28500 | 31426 ft | 509 kts | 72° |
| 2026-05-05 04:24 | 45.81622 | -31.18687 | 31428 ft | 509 kts | 72° |
| 2026-05-05 04:25 | 45.84019 | -31.03853 | 31429 ft | 509 kts | 72° |
| 2026-05-05 04:25 | 45.85591 | -30.93898 | 31433 ft | 507 kts | 73° |
| 2026-05-05 04:26 | 45.87114 | -30.84108 | 31428 ft | 506 kts | 72° |
| 2026-05-05 04:26 | 45.88663 | -30.74255 | 31431 ft | 506 kts | 72° |
| 2026-05-05 04:27 | 45.90209 | -30.64431 | 31430 ft | 503 kts | 72° |
| 2026-05-05 04:27 | 45.91745 | -30.54630 | 31432 ft | 501 kts | 72° |
| 2026-05-05 04:28 | 45.93265 | -30.44868 | 31440 ft | 501 kts | 72° |
| 2026-05-05 04:28 | 45.94767 | -30.35162 | 31434 ft | 501 kts | 72° |
| 2026-05-05 04:29 | 45.96280 | -30.25325 | 31434 ft | 501 kts | 72° |
| 2026-05-05 04:29 | 45.97763 | -30.15614 | 31433 ft | 500 kts | 72° |
| 2026-05-05 04:30 | 45.99247 | -30.05843 | 31437 ft | 500 kts | 72° |
| 2026-05-05 04:30 | 46.00976 | -29.96206 | 31432 ft | 495 kts | 66° |
| 2026-05-05 04:31 | 46.03261 | -29.86901 | 31440 ft | 492 kts | 64° |
| 2026-05-05 04:31 | 46.05645 | -29.77673 | 31437 ft | 492 kts | 63° |
| 2026-05-05 04:32 | 46.07992 | -29.68412 | 31435 ft | 492 kts | 64° |
| 2026-05-05 04:32 | 46.10305 | -29.59124 | 31436 ft | 492 kts | 64° |
| 2026-05-05 04:33 | 46.12588 | -29.49890 | 31436 ft | 492 kts | 64° |
| 2026-05-05 04:33 | 46.14879 | -29.40586 | 31436 ft | 492 kts | 64° |
| 2026-05-05 04:34 | 46.17165 | -29.31273 | 31436 ft | 492 kts | 64° |
| 2026-05-05 04:34 | 46.19447 | -29.21936 | 31435 ft | 493 kts | 64° |
| 2026-05-05 04:35 | 46.21706 | -29.12657 | 31453 ft | 493 kts | 64° |
| 2026-05-05 04:35 | 46.23977 | -29.03293 | 31437 ft | 495 kts | 64° |
| 2026-05-05 04:36 | 46.26243 | -28.93906 | 31435 ft | 495 kts | 64° |
| 2026-05-05 04:36 | 46.28487 | -28.84499 | 31435 ft | 495 kts | 65° |
| 2026-05-05 04:37 | 46.30704 | -28.75064 | 31450 ft | 495 kts | 64° |
| 2026-05-05 04:37 | 46.32929 | -28.65660 | 31436 ft | 494 kts | 64° |
| 2026-05-05 04:38 | 46.35144 | -28.56324 | 31436 ft | 494 kts | 64° |
| 2026-05-05 04:38 | 46.37370 | -28.46912 | 31435 ft | 494 kts | 64° |
| 2026-05-05 04:39 | 46.39586 | -28.37496 | 31447 ft | 494 kts | 64° |
| 2026-05-05 04:39 | 46.41796 | -28.28062 | 31439 ft | 494 kts | 64° |
| 2026-05-05 04:40 | 46.43999 | -28.18619 | 31437 ft | 494 kts | 64° |
| 2026-05-05 04:40 | 46.45825 | -28.10761 | 31436 ft | 494 kts | 64° |
| 2026-05-05 04:41 | 46.48017 | -28.01289 | 31446 ft | 495 kts | 64° |
| 2026-05-05 04:41 | 46.50202 | -27.91808 | 31439 ft | 495 kts | 64° |
| 2026-05-05 04:42 | 46.52362 | -27.82389 | 31430 ft | 495 kts | 64° |
| 2026-05-05 04:42 | 46.54526 | -27.72884 | 31430 ft | 495 kts | 64° |
| 2026-05-05 04:43 | 46.56653 | -27.63344 | 31438 ft | 496 kts | 64° |
| 2026-05-05 04:43 | 46.58791 | -27.53799 | 31432 ft | 496 kts | 64° |
| 2026-05-05 04:44 | 46.60937 | -27.44259 | 31421 ft | 496 kts | 63° |
| 2026-05-05 04:44 | 46.63068 | -27.34769 | 31429 ft | 497 kts | 64° |
| 2026-05-05 04:45 | 46.65206 | -27.25196 | 31432 ft | 497 kts | 63° |
| 2026-05-05 04:45 | 46.67337 | -27.15611 | 31430 ft | 497 kts | 63° |
| 2026-05-05 04:46 | 46.69460 | -27.06021 | 31430 ft | 498 kts | 63° |
| 2026-05-05 04:46 | 46.71577 | -26.96410 | 31428 ft | 498 kts | 64° |
| 2026-05-05 04:47 | 46.73687 | -26.86791 | 31431 ft | 498 kts | 64° |
| 2026-05-05 04:47 | 46.75775 | -26.77222 | 31426 ft | 498 kts | 64° |
| 2026-05-05 04:48 | 46.77869 | -26.67583 | 31424 ft | 498 kts | 64° |
| 2026-05-05 04:48 | 46.79953 | -26.57920 | 31423 ft | 499 kts | 64° |
| 2026-05-05 04:49 | 46.81999 | -26.48218 | 31427 ft | 499 kts | 65° |
| 2026-05-05 04:49 | 46.84046 | -26.38550 | 31422 ft | 498 kts | 66° |
| 2026-05-05 04:50 | 46.86089 | -26.28945 | 31417 ft | 497 kts | 66° |
| 2026-05-05 04:50 | 46.88141 | -26.19290 | 31439 ft | 497 kts | 66° |
| 2026-05-05 04:51 | 46.90185 | -26.09623 | 31419 ft | 497 kts | 67° |
| 2026-05-05 04:51 | 46.92217 | -25.99959 | 31417 ft | 497 kts | 67° |
| 2026-05-05 04:52 | 46.94242 | -25.90275 | 31415 ft | 497 kts | 67° |
| 2026-05-05 04:52 | 46.96245 | -25.80658 | 31412 ft | 497 kts | 67° |
| 2026-05-05 04:53 | 46.98248 | -25.70989 | 31412 ft | 497 kts | 68° |
| 2026-05-05 04:53 | 47.00249 | -25.61287 | 31411 ft | 497 kts | 68° |
| 2026-05-05 04:54 | 47.02241 | -25.51577 | 31408 ft | 497 kts | 68° |
| 2026-05-05 04:54 | 47.04224 | -25.41849 | 31418 ft | 498 kts | 69° |
| 2026-05-05 04:55 | 47.06165 | -25.32085 | 31406 ft | 499 kts | 69° |
| 2026-05-05 04:55 | 47.08113 | -25.22324 | 31407 ft | 498 kts | 69° |
| 2026-05-05 04:56 | 47.10075 | -25.12554 | 31404 ft | 498 kts | 69° |
| 2026-05-05 04:56 | 47.12019 | -25.02854 | 31405 ft | 499 kts | 71° |
| 2026-05-05 04:57 | 47.13970 | -24.93068 | 31400 ft | 500 kts | 71° |
| 2026-05-05 04:57 | 47.15913 | -24.83260 | 31400 ft | 500 kts | 71° |
| 2026-05-05 04:58 | 47.17849 | -24.73444 | 31402 ft | 500 kts | 71° |
| 2026-05-05 04:58 | 47.19775 | -24.63627 | 31409 ft | 500 kts | 72° |
| 2026-05-05 04:59 | 47.21695 | -24.53792 | 31401 ft | 500 kts | 72° |
| 2026-05-05 04:59 | 47.23606 | -24.43949 | 31400 ft | 500 kts | 72° |
| 2026-05-05 05:00 | 47.25508 | -24.34104 | 31398 ft | 500 kts | 72° |
| 2026-05-05 05:00 | 47.27398 | -24.24247 | 31402 ft | 500 kts | 73° |
| 2026-05-05 05:01 | 47.29244 | -24.14359 | 31400 ft | 500 kts | 73° |
| 2026-05-05 05:01 | 47.31087 | -24.04541 | 31398 ft | 500 kts | 73° |
| 2026-05-05 05:02 | 47.32954 | -23.94655 | 31398 ft | 500 kts | 73° |
| 2026-05-05 05:02 | 47.34815 | -23.84779 | 31398 ft | 499 kts | 73° |
| 2026-05-05 05:03 | 47.36652 | -23.74972 | 31398 ft | 499 kts | 73° |
| 2026-05-05 05:03 | 47.38492 | -23.65094 | 31395 ft | 499 kts | 73° |
| 2026-05-05 05:04 | 47.40322 | -23.55214 | 31395 ft | 499 kts | 73° |
| 2026-05-05 05:04 | 47.42142 | -23.45338 | 31398 ft | 498 kts | 73° |
| 2026-05-05 05:05 | 47.43953 | -23.35460 | 31395 ft | 498 kts | 73° |
| 2026-05-05 05:05 | 47.45753 | -23.25581 | 31390 ft | 498 kts | 74° |
| 2026-05-05 05:06 | 47.47536 | -23.15750 | 31389 ft | 498 kts | 74° |
| 2026-05-05 05:06 | 47.49313 | -23.05862 | 31388 ft | 497 kts | 74° |
| 2026-05-05 05:07 | 47.51044 | -22.95966 | 31387 ft | 497 kts | 74° |
| 2026-05-05 05:07 | 47.52785 | -22.86071 | 31387 ft | 497 kts | 74° |
| 2026-05-05 05:08 | 47.54533 | -22.76199 | 31385 ft | 497 kts | 74° |
| 2026-05-05 05:08 | 47.56267 | -22.66375 | 31387 ft | 495 kts | 74° |
| 2026-05-05 05:09 | 47.58001 | -22.56495 | 31387 ft | 495 kts | 74° |
| 2026-05-05 05:09 | 47.59726 | -22.46609 | 31380 ft | 495 kts | 74° |
| 2026-05-05 05:10 | 47.61429 | -22.36794 | 31380 ft | 495 kts | 74° |
| 2026-05-05 05:10 | 47.63133 | -22.26915 | 31380 ft | 493 kts | 74° |
| 2026-05-05 05:11 | 47.64825 | -22.17056 | 31381 ft | 493 kts | 74° |
| 2026-05-05 05:11 | 47.66508 | -22.07188 | 31378 ft | 493 kts | 74° |
| 2026-05-05 05:12 | 47.68173 | -21.97374 | 31373 ft | 493 kts | 74° |
| 2026-05-05 05:12 | 47.69834 | -21.87503 | 31373 ft | 493 kts | 74° |
| 2026-05-05 05:13 | 47.71453 | -21.77593 | 31373 ft | 493 kts | 75° |
| 2026-05-05 05:13 | 47.73076 | -21.67693 | 31370 ft | 493 kts | 74° |
| 2026-05-05 05:14 | 47.74711 | -21.57801 | 31373 ft | 493 kts | 74° |
| 2026-05-05 05:14 | 47.76343 | -21.47908 | 31372 ft | 492 kts | 74° |
| 2026-05-05 05:15 | 47.77962 | -21.38032 | 31371 ft | 491 kts | 74° |
| 2026-05-05 05:15 | 47.79563 | -21.28203 | 31370 ft | 491 kts | 74° |
| 2026-05-05 05:16 | 47.81164 | -21.18313 | 31368 ft | 492 kts | 75° |
| 2026-05-05 05:16 | 47.82757 | -21.08417 | 31371 ft | 490 kts | 74° |
| 2026-05-05 05:17 | 47.84336 | -20.98543 | 31365 ft | 490 kts | 75° |
| 2026-05-05 05:17 | 47.85904 | -20.88682 | 31360 ft | 490 kts | 75° |
| 2026-05-05 05:18 | 47.87467 | -20.78797 | 31360 ft | 490 kts | 75° |
| 2026-05-05 05:18 | 47.89009 | -20.68978 | 31362 ft | 489 kts | 75° |
| 2026-05-05 05:19 | 47.90512 | -20.59104 | 31358 ft | 488 kts | 75° |
| 2026-05-05 05:19 | 47.92015 | -20.49218 | 31355 ft | 488 kts | 75° |
| 2026-05-05 05:20 | 47.93530 | -20.39351 | 31353 ft | 488 kts | 75° |
| 2026-05-05 05:20 | 47.95036 | -20.29536 | 31344 ft | 488 kts | 75° |
| 2026-05-05 05:21 | 47.96541 | -20.19665 | 31353 ft | 487 kts | 75° |
| 2026-05-05 05:21 | 47.98036 | -20.09793 | 31352 ft | 487 kts | 75° |
| 2026-05-05 05:22 | 47.99524 | -19.99905 | 31332 ft | 487 kts | 75° |
| 2026-05-05 05:22 | 48.00456 | -19.89862 | 31347 ft | 490 kts | 85° |
| 2026-05-05 05:23 | 48.00643 | -19.79788 | 31339 ft | 490 kts | 87° |
| 2026-05-05 05:23 | 48.00747 | -19.69628 | 31335 ft | 489 kts | 86° |
| 2026-05-05 05:24 | 48.00907 | -19.59468 | 31345 ft | 489 kts | 86° |
| 2026-05-05 05:24 | 48.01093 | -19.49302 | 31341 ft | 489 kts | 86° |
| 2026-05-05 05:25 | 48.01274 | -19.39162 | 31339 ft | 488 kts | 86° |
| 2026-05-05 05:25 | 48.01445 | -19.29026 | 31328 ft | 488 kts | 86° |
| 2026-05-05 05:26 | 48.01604 | -19.18963 | 31334 ft | 488 kts | 86° |
| 2026-05-05 05:26 | 48.01755 | -19.08826 | 31323 ft | 488 kts | 86° |
| 2026-05-05 05:27 | 48.01897 | -18.98695 | 31327 ft | 487 kts | 86° |
| 2026-05-05 05:27 | 48.02093 | -18.83518 | 31320 ft | 487 kts | 86° |
| 2026-05-05 05:28 | 48.02213 | -18.73398 | 31322 ft | 487 kts | 86° |
| 2026-05-05 05:28 | 48.02286 | -18.63345 | 31317 ft | 487 kts | 87° |
| 2026-05-05 05:29 | 48.02354 | -18.53225 | 31321 ft | 486 kts | 86° |
| 2026-05-05 05:29 | 48.02437 | -18.43139 | 31314 ft | 485 kts | 86° |
| 2026-05-05 05:30 | 48.02508 | -18.34758 | 31312 ft | 484 kts | 86° |
| 2026-05-05 05:30 | 48.02585 | -18.24710 | 31305 ft | 484 kts | 86° |
| 2026-05-05 05:31 | 48.02654 | -18.14650 | 31307 ft | 484 kts | 86° |
| 2026-05-05 05:31 | 48.02712 | -18.04583 | 31298 ft | 483 kts | 86° |
| 2026-05-05 05:32 | 48.02761 | -17.94608 | 31298 ft | 483 kts | 86° |
| 2026-05-05 05:32 | 48.02802 | -17.84571 | 31298 ft | 483 kts | 86° |
| 2026-05-05 05:33 | 48.02834 | -17.74528 | 31291 ft | 483 kts | 86° |
| 2026-05-05 05:33 | 48.02858 | -17.64476 | 31288 ft | 483 kts | 86° |
| 2026-05-05 05:34 | 48.02872 | -17.54500 | 31283 ft | 483 kts | 86° |
| 2026-05-05 05:34 | 48.02866 | -17.44459 | 31285 ft | 483 kts | 87° |
| 2026-05-05 05:35 | 48.02818 | -17.34394 | 31286 ft | 483 kts | 87° |
| 2026-05-05 05:35 | 48.02787 | -17.24352 | 31290 ft | 483 kts | 87° |
| 2026-05-05 05:36 | 48.02764 | -17.14311 | 31285 ft | 483 kts | 87° |
| 2026-05-05 05:36 | 48.02736 | -17.04262 | 31278 ft | 484 kts | 88° |
| 2026-05-05 05:37 | 48.02699 | -16.94274 | 31276 ft | 485 kts | 88° |
| 2026-05-05 05:37 | 48.02653 | -16.84192 | 31270 ft | 485 kts | 88° |
| 2026-05-05 05:38 | 48.02597 | -16.74137 | 31269 ft | 486 kts | 88° |
| 2026-05-05 05:38 | 48.02532 | -16.64030 | 31268 ft | 486 kts | 88° |
| 2026-05-05 05:39 | 48.02459 | -16.53920 | 31259 ft | 486 kts | 88° |
| 2026-05-05 05:39 | 48.02376 | -16.43808 | 31255 ft | 486 kts | 88° |
| 2026-05-05 05:40 | 48.02284 | -16.33691 | 31265 ft | 487 kts | 89° |
| 2026-05-05 05:40 | 48.02182 | -16.23575 | 31253 ft | 487 kts | 89° |
| 2026-05-05 05:41 | 48.02031 | -16.13512 | 31249 ft | 487 kts | 89° |
| 2026-05-05 05:41 | 48.01883 | -16.03401 | 31244 ft | 487 kts | 89° |
| 2026-05-05 05:42 | 48.01750 | -15.93291 | 31239 ft | 487 kts | 89° |
| 2026-05-05 05:42 | 48.01615 | -15.83166 | 31243 ft | 487 kts | 89° |
| 2026-05-05 05:43 | 48.01471 | -15.73043 | 31240 ft | 487 kts | 89° |
| 2026-05-05 05:43 | 48.01317 | -15.62921 | 31231 ft | 487 kts | 89° |
| 2026-05-05 05:44 | 48.01154 | -15.52797 | 31225 ft | 488 kts | 89° |
| 2026-05-05 05:44 | 48.00983 | -15.42723 | 31227 ft | 489 kts | 89° |
| 2026-05-05 05:45 | 48.00802 | -15.32580 | 31223 ft | 488 kts | 89° |
| 2026-05-05 05:45 | 48.00612 | -15.22422 | 31219 ft | 488 kts | 89° |
| 2026-05-05 05:46 | 48.00413 | -15.12281 | 31219 ft | 488 kts | 90° |
| 2026-05-05 05:46 | 48.00307 | -15.02136 | 31211 ft | 487 kts | 83° |
| 2026-05-05 05:47 | 48.00834 | -14.97182 | 31216 ft | 482 kts | 72° |
| 2026-05-05 05:47 | 48.01942 | -14.92478 | 31212 ft | 479 kts | 64° |
| 2026-05-05 05:47 | 48.04845 | -14.83607 | 31209 ft | 478 kts | 60° |
| 2026-05-05 05:48 | 48.07755 | -14.74655 | 31205 ft | 479 kts | 62° |
| 2026-05-05 05:48 | 48.10494 | -14.65559 | 31205 ft | 479 kts | 63° |
| 2026-05-05 05:49 | 48.13152 | -14.56432 | 31201 ft | 477 kts | 64° |
| 2026-05-05 05:49 | 48.15793 | -14.47312 | 31200 ft | 477 kts | 64° |
| 2026-05-05 05:50 | 48.18436 | -14.38174 | 31198 ft | 478 kts | 64° |
| 2026-05-05 05:50 | 48.21076 | -14.29025 | 31197 ft | 478 kts | 64° |
| 2026-05-05 05:51 | 48.23710 | -14.19858 | 31198 ft | 477 kts | 64° |
| 2026-05-05 05:51 | 48.26310 | -14.10779 | 31192 ft | 477 kts | 64° |
| 2026-05-05 05:52 | 48.28922 | -14.01620 | 31184 ft | 477 kts | 64° |
| 2026-05-05 05:52 | 48.31531 | -13.92440 | 31184 ft | 477 kts | 64° |
| 2026-05-05 05:53 | 48.34111 | -13.83294 | 31189 ft | 475 kts | 64° |
| 2026-05-05 05:53 | 48.36634 | -13.74190 | 31184 ft | 474 kts | 64° |
| 2026-05-05 05:54 | 48.39181 | -13.65039 | 31178 ft | 474 kts | 64° |
| 2026-05-05 05:54 | 48.41741 | -13.55880 | 31178 ft | 474 kts | 64° |
| 2026-05-05 05:55 | 48.44293 | -13.46729 | 31173 ft | 474 kts | 64° |
| 2026-05-05 05:55 | 48.46840 | -13.37558 | 31168 ft | 474 kts | 64° |
| 2026-05-05 05:56 | 48.49380 | -13.28376 | 31172 ft | 474 kts | 64° |
| 2026-05-05 05:56 | 48.51895 | -13.19251 | 31173 ft | 474 kts | 64° |
| 2026-05-05 05:57 | 48.54416 | -13.10065 | 31178 ft | 474 kts | 65° |
| 2026-05-05 05:57 | 48.56922 | -13.00894 | 31161 ft | 472 kts | 65° |
| 2026-05-05 05:58 | 48.59425 | -12.91708 | 31162 ft | 473 kts | 65° |
| 2026-05-05 05:58 | 48.61926 | -12.82488 | 31163 ft | 473 kts | 65° |
| 2026-05-05 05:59 | 48.64417 | -12.73266 | 31157 ft | 474 kts | 65° |
| 2026-05-05 05:59 | 48.66877 | -12.64031 | 31163 ft | 471 kts | 65° |
| 2026-05-05 06:00 | 48.69287 | -12.54888 | 31154 ft | 470 kts | 65° |
| 2026-05-05 06:00 | 48.71725 | -12.45708 | 31157 ft | 470 kts | 65° |
| 2026-05-05 06:01 | 48.74172 | -12.36507 | 31154 ft | 470 kts | 65° |
| 2026-05-05 06:01 | 48.76609 | -12.27311 | 31161 ft | 469 kts | 65° |
| 2026-05-05 06:02 | 48.79021 | -12.18169 | 31144 ft | 465 kts | 65° |
| 2026-05-05 06:02 | 48.81401 | -12.09111 | 31145 ft | 465 kts | 65° |
| 2026-05-05 06:03 | 48.84283 | -12.00392 | 31149 ft | 459 kts | 50° |
| 2026-05-05 06:03 | 48.86397 | -11.96806 | 31129 ft | 454 kts | 39° |
| 2026-05-05 06:03 | 48.88877 | -11.93857 | 31131 ft | 452 kts | 32° |
| 2026-05-05 06:04 | 48.94162 | -11.88623 | 31141 ft | 452 kts | 31° |
| 2026-05-05 06:04 | 48.99360 | -11.83336 | 31141 ft | 452 kts | 33° |
| 2026-05-05 06:05 | 49.04354 | -11.77510 | 31137 ft | 454 kts | 42° |
| 2026-05-05 06:05 | 49.06411 | -11.73840 | 31149 ft | 458 kts | 53° |
| 2026-05-05 06:05 | 49.08000 | -11.69609 | 31133 ft | 462 kts | 62° |
| 2026-05-05 06:06 | 49.10381 | -11.60459 | 31148 ft | 465 kts | 67° |
| 2026-05-05 06:06 | 49.12624 | -11.51288 | 31137 ft | 461 kts | 65° |
| 2026-05-05 06:07 | 49.14983 | -11.42203 | 31133 ft | 459 kts | 65° |
| 2026-05-05 06:07 | 49.17396 | -11.33162 | 31126 ft | 459 kts | 64° |
| 2026-05-05 06:08 | 49.19805 | -11.24143 | 31126 ft | 459 kts | 64° |
| 2026-05-05 06:08 | 49.22220 | -11.15058 | 31121 ft | 462 kts | 65° |
| 2026-05-05 06:09 | 49.24619 | -11.05980 | 31118 ft | 458 kts | 65° |
| 2026-05-05 06:09 | 49.27000 | -10.96936 | 31118 ft | 457 kts | 65° |
| 2026-05-05 06:10 | 49.29359 | -10.87941 | 31115 ft | 457 kts | 65° |
| 2026-05-05 06:10 | 49.31726 | -10.78884 | 31116 ft | 458 kts | 65° |
| 2026-05-05 06:11 | 49.34083 | -10.69822 | 31116 ft | 455 kts | 65° |
| 2026-05-05 06:11 | 49.36409 | -10.60844 | 31110 ft | 452 kts | 65° |
| 2026-05-05 06:12 | 49.38702 | -10.51921 | 31102 ft | 452 kts | 65° |
| 2026-05-05 06:12 | 49.40972 | -10.42920 | 31104 ft | 452 kts | 65° |
| 2026-05-05 06:13 | 49.43258 | -10.33912 | 31101 ft | 452 kts | 65° |
| 2026-05-05 06:13 | 49.45541 | -10.24943 | 31101 ft | 447 kts | 65° |
| 2026-05-05 06:14 | 49.47804 | -10.16040 | 31104 ft | 447 kts | 65° |
| 2026-05-05 06:14 | 49.50058 | -10.07137 | 31099 ft | 447 kts | 65° |
| 2026-05-05 06:15 | 49.52307 | -9.98221 | 31091 ft | 447 kts | 65° |
| 2026-05-05 06:15 | 49.54533 | -9.89356 | 31111 ft | 446 kts | 65° |
| 2026-05-05 06:16 | 49.56759 | -9.80456 | 31091 ft | 446 kts | 66° |
| 2026-05-05 06:16 | 49.58983 | -9.71528 | 31083 ft | 446 kts | 66° |
| 2026-05-05 06:17 | 49.61200 | -9.62593 | 31086 ft | 446 kts | 66° |
| 2026-05-05 06:17 | 49.63411 | -9.53644 | 31084 ft | 446 kts | 66° |
| 2026-05-05 06:18 | 49.65244 | -9.46201 | 31083 ft | 446 kts | 66° |
| 2026-05-05 06:18 | 49.67440 | -9.37247 | 31075 ft | 446 kts | 66° |
| 2026-05-05 06:19 | 49.69604 | -9.28249 | 31080 ft | 447 kts | 66° |
| 2026-05-05 06:19 | 49.71759 | -9.19245 | 31080 ft | 447 kts | 66° |
| 2026-05-05 06:20 | 49.73928 | -9.10246 | 31080 ft | 446 kts | 66° |
| 2026-05-05 06:20 | 49.76092 | -9.01268 | 31076 ft | 442 kts | 66° |
| 2026-05-05 06:21 | 49.78233 | -8.92361 | 31079 ft | 441 kts | 66° |
| 2026-05-05 06:21 | 49.80352 | -8.83513 | 31072 ft | 441 kts | 66° |
| 2026-05-05 06:22 | 49.82480 | -8.74592 | 31072 ft | 441 kts | 66° |
| 2026-05-05 06:22 | 49.84604 | -8.65645 | 31065 ft | 442 kts | 66° |
| 2026-05-05 06:23 | 49.86707 | -8.56744 | 31074 ft | 440 kts | 67° |
| 2026-05-05 06:23 | 49.88809 | -8.47819 | 31047 ft | 441 kts | 67° |
| 2026-05-05 06:24 | 49.90898 | -8.38914 | 31072 ft | 442 kts | 67° |
| 2026-05-05 06:24 | 49.92997 | -8.29922 | 31069 ft | 442 kts | 67° |
| 2026-05-05 06:25 | 49.95088 | -8.20928 | 31065 ft | 442 kts | 67° |
| 2026-05-05 06:25 | 49.97159 | -8.11941 | 31065 ft | 441 kts | 68° |
| 2026-05-05 06:26 | 49.99176 | -8.02998 | 31053 ft | 441 kts | 68° |
| 2026-05-05 06:26 | 50.01119 | -7.93947 | 31056 ft | 443 kts | 71° |
| 2026-05-05 06:27 | 50.03234 | -7.79930 | 31055 ft | 444 kts | 74° |
| 2026-05-05 06:28 | 50.04557 | -7.70531 | 31058 ft | 445 kts | 75° |
| 2026-05-05 06:28 | 50.05902 | -7.61119 | 31051 ft | 446 kts | 75° |
| 2026-05-05 06:29 | 50.07253 | -7.51703 | 31050 ft | 446 kts | 75° |
| 2026-05-05 06:29 | 50.08599 | -7.42277 | 31049 ft | 446 kts | 75° |
| 2026-05-05 06:30 | 50.09938 | -7.32844 | 31062 ft | 446 kts | 75° |
| 2026-05-05 06:30 | 50.11264 | -7.23443 | 31048 ft | 448 kts | 76° |
| 2026-05-05 06:31 | 50.12592 | -7.13958 | 31043 ft | 448 kts | 76° |
| 2026-05-05 06:31 | 50.13916 | -7.04449 | 31043 ft | 448 kts | 76° |
| 2026-05-05 06:32 | 50.15230 | -6.94944 | 31040 ft | 448 kts | 76° |
| 2026-05-05 06:32 | 50.16537 | -6.85433 | 31040 ft | 449 kts | 77° |
| 2026-05-05 06:33 | 50.17840 | -6.75890 | 31035 ft | 450 kts | 77° |
| 2026-05-05 06:33 | 50.19112 | -6.66392 | 31034 ft | 450 kts | 77° |
| 2026-05-05 06:34 | 50.20357 | -6.56809 | 31029 ft | 450 kts | 77° |
| 2026-05-05 06:34 | 50.21619 | -6.47230 | 31029 ft | 450 kts | 77° |
| 2026-05-05 06:35 | 50.22892 | -6.37636 | 31025 ft | 454 kts | 78° |
| 2026-05-05 06:35 | 50.24171 | -6.27954 | 31023 ft | 455 kts | 78° |
| 2026-05-05 06:36 | 50.25442 | -6.18268 | 31018 ft | 455 kts | 78° |
| 2026-05-05 06:36 | 50.26702 | -6.08585 | 31017 ft | 453 kts | 77° |
| 2026-05-05 06:37 | 50.27951 | -5.98929 | 31011 ft | 452 kts | 77° |
| 2026-05-05 06:37 | 50.29189 | -5.89288 | 31007 ft | 456 kts | 78° |
| 2026-05-05 06:38 | 50.30431 | -5.79556 | 31005 ft | 457 kts | 78° |
| 2026-05-05 06:38 | 50.31666 | -5.69795 | 31003 ft | 457 kts | 78° |
| 2026-05-05 06:39 | 50.32894 | -5.60033 | 31014 ft | 457 kts | 78° |
| 2026-05-05 06:39 | 50.34114 | -5.50258 | 31007 ft | 460 kts | 79° |
| 2026-05-05 06:40 | 50.35328 | -5.40381 | 31017 ft | 462 kts | 79° |
| 2026-05-05 06:40 | 50.36499 | -5.30472 | 31014 ft | 463 kts | 79° |
| 2026-05-05 06:41 | 50.37678 | -5.20621 | 31016 ft | 463 kts | 79° |
| 2026-05-05 06:41 | 50.38876 | -5.10706 | 31021 ft | 463 kts | 79° |
| 2026-05-05 06:42 | 50.40069 | -5.00793 | 31022 ft | 463 kts | 79° |
| 2026-05-05 06:42 | 50.41253 | -4.90877 | 31020 ft | 463 kts | 79° |
| 2026-05-05 06:43 | 50.42428 | -4.80952 | 31017 ft | 463 kts | 79° |
| 2026-05-05 06:43 | 50.43589 | -4.71079 | 31015 ft | 463 kts | 79° |
| 2026-05-05 06:44 | 50.44748 | -4.61144 | 31002 ft | 464 kts | 81° |
| 2026-05-05 06:44 | 50.45902 | -4.51166 | 31005 ft | 465 kts | 81° |
| 2026-05-05 06:45 | 50.47048 | -4.41175 | 31004 ft | 465 kts | 81° |
| 2026-05-05 06:45 | 50.48187 | -4.31179 | 31004 ft | 465 kts | 81° |
| 2026-05-05 06:46 | 50.49317 | -4.21177 | 31003 ft | 465 kts | 81° |
| 2026-05-05 06:46 | 50.50425 | -4.11160 | 30999 ft | 465 kts | 82° |
| 2026-05-05 06:47 | 50.51484 | -4.01205 | 31006 ft | 464 kts | 82° |
| 2026-05-05 06:47 | 50.52577 | -3.91186 | 31004 ft | 464 kts | 82° |
| 2026-05-05 06:48 | 50.53694 | -3.81176 | 31004 ft | 464 kts | 81° |
| 2026-05-05 06:48 | 50.54812 | -3.71166 | 30995 ft | 465 kts | 82° |
| 2026-05-05 06:49 | 50.55926 | -3.61106 | 31006 ft | 468 kts | 83° |
| 2026-05-05 06:49 | 50.57026 | -3.51079 | 31003 ft | 468 kts | 83° |
| 2026-05-05 06:50 | 50.58497 | -3.41069 | 31000 ft | 471 kts | 77° |
| 2026-05-05 06:50 | 50.60382 | -3.31182 | 30996 ft | 471 kts | 75° |
| 2026-05-05 06:51 | 50.62298 | -3.21313 | 30999 ft | 473 kts | 76° |
| 2026-05-05 06:51 | 50.64179 | -3.11391 | 31011 ft | 475 kts | 76° |
| 2026-05-05 06:52 | 50.66047 | -3.01389 | 31012 ft | 476 kts | 76° |
| 2026-05-05 06:52 | 50.67903 | -2.91382 | 31005 ft | 475 kts | 76° |
| 2026-05-05 06:53 | 50.69746 | -2.81389 | 31003 ft | 475 kts | 76° |
| 2026-05-05 06:53 | 50.71590 | -2.71341 | 31006 ft | 478 kts | 77° |
| 2026-05-05 06:54 | 50.73432 | -2.61247 | 31007 ft | 479 kts | 77° |
| 2026-05-05 06:54 | 50.75260 | -2.51143 | 31007 ft | 478 kts | 77° |
| 2026-05-05 06:55 | 50.77056 | -2.41016 | 31008 ft | 478 kts | 77° |
| 2026-05-05 06:55 | 50.78860 | -2.30899 | 31003 ft | 478 kts | 77° |
| 2026-05-05 06:56 | 50.80663 | -2.20792 | 30997 ft | 478 kts | 77° |
| 2026-05-05 06:56 | 50.82442 | -2.10740 | 30999 ft | 478 kts | 77° |
| 2026-05-05 06:57 | 50.84229 | -2.00620 | 30996 ft | 478 kts | 77° |
| 2026-05-05 06:57 | 50.86001 | -1.90480 | 30994 ft | 478 kts | 77° |
| 2026-05-05 06:58 | 50.87768 | -1.80314 | 30995 ft | 480 kts | 77° |
| 2026-05-05 06:58 | 50.89536 | -1.70116 | 30990 ft | 480 kts | 77° |
| 2026-05-05 06:59 | 50.91298 | -1.59908 | 30993 ft | 480 kts | 78° |
| 2026-05-05 06:59 | 50.93050 | -1.49699 | 30995 ft | 480 kts | 78° |
| 2026-05-05 07:00 | 50.94793 | -1.39473 | 30981 ft | 481 kts | 78° |
| 2026-05-05 07:00 | 50.96229 | -1.29167 | 30999 ft | 481 kts | 84° |
| 2026-05-05 07:01 | 50.97147 | -1.18668 | 30992 ft | 480 kts | 86° |
| 2026-05-05 07:01 | 50.97995 | -1.08150 | 30992 ft | 481 kts | 85° |
| 2026-05-05 07:02 | 50.98876 | -0.97637 | 30981 ft | 480 kts | 85° |
| 2026-05-05 07:02 | 50.99773 | -0.87109 | 30981 ft | 482 kts | 85° |
| 2026-05-05 07:03 | 51.00666 | -0.76564 | 30983 ft | 482 kts | 85° |
| 2026-05-05 07:03 | 51.01550 | -0.65998 | 30978 ft | 482 kts | 85° |
| 2026-05-05 07:04 | 51.02417 | -0.55505 | 30969 ft | 482 kts | 85° |
| 2026-05-05 07:04 | 51.03280 | -0.44936 | 30984 ft | 482 kts | 85° |
| 2026-05-05 07:05 | 51.04133 | -0.34375 | 30989 ft | 482 kts | 85° |
| 2026-05-05 07:05 | 51.04977 | -0.23795 | 30991 ft | 482 kts | 85° |
| 2026-05-05 07:06 | 51.05810 | -0.13233 | 30991 ft | 482 kts | 85° |
| 2026-05-05 07:06 | 51.06622 | -0.02726 | 30992 ft | 482 kts | 86° |
| 2026-05-05 07:07 | 51.07387 | 0.07878 | 31029 ft | 484 kts | 86° |
| 2026-05-05 07:07 | 51.08042 | 0.16798 | 31054 ft | 484 kts | 86° |
| 2026-05-05 07:08 | 51.08830 | 0.27337 | 31083 ft | 484 kts | 86° |
| 2026-05-05 07:08 | 51.09625 | 0.37978 | 31102 ft | 484 kts | 86° |
| 2026-05-05 07:09 | 51.10410 | 0.48614 | 31095 ft | 484 kts | 85° |
| 2026-05-05 07:09 | 51.11178 | 0.59284 | 31085 ft | 485 kts | 86° |
| 2026-05-05 07:10 | 51.11920 | 0.69945 | 31058 ft | 485 kts | 86° |
| 2026-05-05 07:10 | 51.12664 | 0.80625 | 31027 ft | 485 kts | 86° |
| 2026-05-05 07:11 | 51.13405 | 0.91301 | 30996 ft | 485 kts | 86° |
| 2026-05-05 07:11 | 51.14137 | 1.01985 | 30968 ft | 487 kts | 85° |
| 2026-05-05 07:12 | 51.14864 | 1.12721 | 30966 ft | 487 kts | 86° |
| 2026-05-05 07:12 | 51.15580 | 1.23458 | 30969 ft | 487 kts | 86° |
| 2026-05-05 07:13 | 51.16252 | 1.34120 | 30965 ft | 486 kts | 89° |
| 2026-05-05 07:13 | 51.16115 | 1.44854 | 30960 ft | 485 kts | 97° |
| 2026-05-05 07:14 | 51.15519 | 1.55570 | 30968 ft | 486 kts | 98° |
| 2026-05-05 07:14 | 51.14924 | 1.66291 | 30968 ft | 486 kts | 97° |
| 2026-05-05 07:15 | 51.14376 | 1.77028 | 30963 ft | 486 kts | 97° |
| 2026-05-05 07:15 | 51.13840 | 1.87757 | 30964 ft | 486 kts | 97° |
| 2026-05-05 07:16 | 51.13298 | 1.98400 | 30961 ft | 484 kts | 97° |
| 2026-05-05 07:16 | 51.12720 | 2.09099 | 30961 ft | 484 kts | 97° |
| 2026-05-05 07:17 | 51.12139 | 2.19769 | 30960 ft | 484 kts | 97° |
| 2026-05-05 07:17 | 51.11561 | 2.30449 | 30952 ft | 484 kts | 97° |
| 2026-05-05 07:18 | 51.10977 | 2.41127 | 30944 ft | 485 kts | 98° |
| 2026-05-05 07:18 | 51.10385 | 2.51758 | 30946 ft | 485 kts | 98° |
| 2026-05-05 07:19 | 51.09761 | 2.62443 | 30944 ft | 484 kts | 100° |
| 2026-05-05 07:19 | 51.08339 | 2.72854 | 30945 ft | 480 kts | 109° |
| 2026-05-05 07:20 | 51.06422 | 2.83034 | 30940 ft | 480 kts | 110° |
| 2026-05-05 07:20 | 51.04491 | 2.93231 | 30938 ft | 483 kts | 110° |
| 2026-05-05 07:21 | 51.02614 | 3.03419 | 30939 ft | 484 kts | 110° |
| 2026-05-05 07:21 | 51.00735 | 3.13694 | 30939 ft | 484 kts | 110° |
| 2026-05-05 07:22 | 50.98849 | 3.23962 | 30940 ft | 484 kts | 110° |
| 2026-05-05 07:22 | 50.96954 | 3.34204 | 30932 ft | 483 kts | 110° |
| 2026-05-05 07:23 | 50.95056 | 3.44407 | 30931 ft | 483 kts | 110° |
| 2026-05-05 07:23 | 50.93143 | 3.54624 | 30933 ft | 483 kts | 110° |
| 2026-05-05 07:24 | 50.91211 | 3.64830 | 30935 ft | 483 kts | 110° |
| 2026-05-05 07:24 | 50.89229 | 3.74985 | 30933 ft | 483 kts | 111° |
| 2026-05-05 07:25 | 50.87250 | 3.85151 | 30922 ft | 483 kts | 111° |
| 2026-05-05 07:25 | 50.85276 | 3.95320 | 30933 ft | 483 kts | 111° |
| 2026-05-05 07:26 | 50.83311 | 4.05416 | 30917 ft | 483 kts | 111° |
| 2026-05-05 07:26 | 50.81323 | 4.15573 | 30909 ft | 483 kts | 111° |
| 2026-05-05 07:27 | 50.79329 | 4.25709 | 30913 ft | 481 kts | 111° |
| 2026-05-05 07:27 | 50.77349 | 4.35715 | 30912 ft | 480 kts | 111° |
| 2026-05-05 07:28 | 50.75348 | 4.45775 | 30915 ft | 480 kts | 111° |
| 2026-05-05 07:28 | 50.73338 | 4.55824 | 30903 ft | 480 kts | 111° |
| 2026-05-05 07:29 | 50.71333 | 4.65865 | 30911 ft | 480 kts | 111° |
| 2026-05-05 07:29 | 50.69356 | 4.75943 | 30897 ft | 482 kts | 111° |
| 2026-05-05 07:30 | 50.67388 | 4.86059 | 30906 ft | 482 kts | 111° |
| 2026-05-05 07:30 | 50.64359 | 5.01156 | 30910 ft | 481 kts | 112° |
| 2026-05-05 07:31 | 50.62304 | 5.11119 | 30901 ft | 481 kts | 112° |
| 2026-05-05 07:31 | 50.60229 | 5.21161 | 30901 ft | 483 kts | 112° |
| 2026-05-05 07:32 | 50.58147 | 5.31205 | 30905 ft | 483 kts | 112° |
| 2026-05-05 07:32 | 50.56058 | 5.41245 | 30897 ft | 483 kts | 113° |
| 2026-05-05 07:33 | 50.53960 | 5.51279 | 30898 ft | 483 kts | 113° |
| 2026-05-05 07:33 | 50.51872 | 5.61240 | 30890 ft | 484 kts | 112° |
| 2026-05-05 07:34 | 50.49896 | 5.71346 | 30891 ft | 482 kts | 111° |
| 2026-05-05 07:34 | 50.48027 | 5.81377 | 30889 ft | 481 kts | 111° |
| 2026-05-05 07:35 | 50.46148 | 5.91465 | 30889 ft | 481 kts | 111° |
| 2026-05-05 07:35 | 50.44251 | 6.01555 | 30882 ft | 481 kts | 111° |
| 2026-05-05 07:36 | 50.42342 | 6.11632 | 30860 ft | 480 kts | 110° |
| 2026-05-05 07:36 | 50.41413 | 6.16541 | 30715 ft | 459 kts | 110° |
| 2026-05-05 07:36 | 50.40513 | 6.21288 | 30002 ft | 451 kts | 110° |
| 2026-05-05 07:37 | 50.39612 | 6.25995 | 28914 ft | 451 kts | 110° |
| 2026-05-05 07:37 | 50.38706 | 6.30703 | 27769 ft | 451 kts | 110° |
| 2026-05-05 07:37 | 50.37792 | 6.35408 | 26620 ft | 451 kts | 110° |
| 2026-05-05 07:37 | 50.36883 | 6.40126 | 25425 ft | 452 kts | 107° |
| 2026-05-05 07:38 | 50.36248 | 6.44935 | 24281 ft | 455 kts | 100° |
| 2026-05-05 07:38 | 50.35857 | 6.49795 | 22989 ft | 457 kts | 97° |
| 2026-05-05 07:38 | 50.35566 | 6.54768 | 21727 ft | 456 kts | 96° |
| 2026-05-05 07:38 | 50.35307 | 6.59684 | 20675 ft | 450 kts | 96° |
| 2026-05-05 07:39 | 50.35045 | 6.64533 | 19672 ft | 444 kts | 96° |
| 2026-05-05 07:39 | 50.34770 | 6.69329 | 18699 ft | 439 kts | 96° |
| 2026-05-05 07:39 | 50.34483 | 6.74059 | 17713 ft | 434 kts | 96° |
| 2026-05-05 07:39 | 50.34193 | 6.78729 | 16715 ft | 428 kts | 97° |
| 2026-05-05 07:40 | 50.33896 | 6.83325 | 15742 ft | 421 kts | 98° |
| 2026-05-05 07:40 | 50.33251 | 6.87747 | 14804 ft | 414 kts | 110° |
| 2026-05-05 07:40 | 50.32215 | 6.91913 | 13926 ft | 407 kts | 115° |
| 2026-05-05 07:40 | 50.31031 | 6.95912 | 12973 ft | 402 kts | 117° |
| 2026-05-05 07:41 | 50.29815 | 6.99818 | 12066 ft | 396 kts | 118° |
| 2026-05-05 07:41 | 50.28616 | 7.03663 | 11241 ft | 391 kts | 118° |
| 2026-05-05 07:41 | 50.27444 | 7.07468 | 10391 ft | 386 kts | 117° |
| 2026-05-05 07:41 | 50.26301 | 7.11230 | 9698 ft | 378 kts | 117° |
| 2026-05-05 07:42 | 50.25217 | 7.14833 | 9565 ft | 355 kts | 117° |
| 2026-05-05 07:42 | 50.24215 | 7.18183 | 9424 ft | 336 kts | 117° |
| 2026-05-05 07:42 | 50.23250 | 7.21407 | 9284 ft | 319 kts | 117° |
| 2026-05-05 07:42 | 50.22335 | 7.24461 | 9149 ft | 303 kts | 117° |
| 2026-05-05 07:43 | 50.21460 | 7.27380 | 9012 ft | 290 kts | 117° |
| 2026-05-05 07:43 | 50.20620 | 7.30176 | 8803 ft | 280 kts | 117° |
| 2026-05-05 07:43 | 50.19803 | 7.32932 | 8401 ft | 279 kts | 116° |
| 2026-05-05 07:43 | 50.19077 | 7.35725 | 8039 ft | 276 kts | 114° |
| 2026-05-05 07:44 | 50.18400 | 7.38517 | 7652 ft | 275 kts | 112° |
| 2026-05-05 07:44 | 50.17734 | 7.41308 | 7257 ft | 273 kts | 112° |
| 2026-05-05 07:44 | 50.17077 | 7.44076 | 6894 ft | 271 kts | 112° |
| 2026-05-05 07:44 | 50.16425 | 7.46822 | 6531 ft | 269 kts | 112° |
| 2026-05-05 07:45 | 50.15777 | 7.49553 | 6157 ft | 267 kts | 112° |
| 2026-05-05 07:45 | 50.15133 | 7.52261 | 5822 ft | 265 kts | 112° |
| 2026-05-05 07:45 | 50.14499 | 7.54928 | 5722 ft | 259 kts | 112° |
| 2026-05-05 07:45 | 50.13868 | 7.57574 | 5771 ft | 264 kts | 112° |
| 2026-05-05 07:46 | 50.13219 | 7.60297 | 5771 ft | 265 kts | 112° |
| 2026-05-05 07:46 | 50.12585 | 7.62953 | 5775 ft | 265 kts | 112° |
| 2026-05-05 07:46 | 50.11940 | 7.65651 | 5906 ft | 268 kts | 112° |
| 2026-05-05 07:46 | 50.11190 | 7.68260 | 7017 ft | 264 kts | 121° |
| 2026-05-05 07:47 | 50.10212 | 7.70708 | 7975 ft | 270 kts | 126° |
| 2026-05-05 07:47 | 50.09149 | 7.73150 | 8903 ft | 275 kts | 127° |
| 2026-05-05 07:47 | 50.08056 | 7.75619 | 9842 ft | 279 kts | 127° |
| 2026-05-05 07:47 | 50.06944 | 7.78125 | 10642 ft | 283 kts | 127° |
| 2026-05-05 07:48 | 50.05778 | 7.80748 | 10937 ft | 310 kts | 127° |
| 2026-05-05 07:48 | 50.04493 | 7.83637 | 11077 ft | 339 kts | 127° |
| 2026-05-05 07:48 | 50.03090 | 7.86795 | 11216 ft | 368 kts | 126° |
| 2026-05-05 07:48 | 50.01590 | 7.90181 | 11534 ft | 387 kts | 126° |
| 2026-05-05 07:49 | 50.00057 | 7.93647 | 11919 ft | 390 kts | 126° |
| 2026-05-05 07:49 | 49.98597 | 7.97217 | 12299 ft | 393 kts | 123° |
| 2026-05-05 07:49 | 49.97223 | 8.00915 | 12692 ft | 396 kts | 121° |
| 2026-05-05 07:49 | 49.95881 | 8.04672 | 12843 ft | 399 kts | 121° |
| 2026-05-05 07:50 | 49.94547 | 8.08448 | 12896 ft | 399 kts | 121° |
| 2026-05-05 07:50 | 49.93209 | 8.12230 | 12895 ft | 399 kts | 121° |
| 2026-05-05 07:50 | 49.91866 | 8.16011 | 12875 ft | 399 kts | 121° |
| 2026-05-05 07:50 | 49.90520 | 8.19779 | 12862 ft | 399 kts | 121° |
| 2026-05-05 07:51 | 49.89239 | 8.23547 | 12873 ft | 402 kts | 116° |
| 2026-05-05 07:51 | 49.88425 | 8.27685 | 12869 ft | 405 kts | 99° |
| 2026-05-05 07:51 | 49.88518 | 8.32051 | 12871 ft | 407 kts | 79° |
| 2026-05-05 07:51 | 49.89323 | 8.36267 | 12878 ft | 410 kts | 70° |
| 2026-05-05 07:52 | 49.90399 | 8.40359 | 12877 ft | 409 kts | 68° |
| 2026-05-05 07:52 | 49.91524 | 8.44407 | 12875 ft | 407 kts | 68° |
| 2026-05-05 07:52 | 49.92590 | 8.48333 | 12873 ft | 381 kts | 69° |
| 2026-05-05 07:52 | 49.93550 | 8.52023 | 12874 ft | 357 kts | 69° |
| 2026-05-05 07:53 | 49.94416 | 8.55478 | 12877 ft | 335 kts | 70° |
| 2026-05-05 07:53 | 49.95223 | 8.58773 | 12876 ft | 319 kts | 70° |
| 2026-05-05 07:53 | 49.95995 | 8.61971 | 12884 ft | 315 kts | 71° |
| 2026-05-05 07:53 | 49.96761 | 8.65164 | 12883 ft | 315 kts | 71° |
| 2026-05-05 07:54 | 49.97522 | 8.68349 | 12885 ft | 315 kts | 71° |
| 2026-05-05 07:54 | 49.98282 | 8.71534 | 12882 ft | 315 kts | 71° |
| 2026-05-05 07:54 | 49.98786 | 8.73649 | 12884 ft | 315 kts | 71° |
| 2026-05-05 07:54 | 49.99545 | 8.76836 | 12883 ft | 315 kts | 71° |
| 2026-05-05 07:55 | 50.00303 | 8.80027 | 12884 ft | 315 kts | 71° |
| 2026-05-05 07:55 | 50.01053 | 8.83191 | 12506 ft | 313 kts | 71° |
| 2026-05-05 07:55 | 50.02040 | 8.87382 | 11908 ft | 310 kts | 71° |
| 2026-05-05 07:55 | 50.02540 | 8.89506 | 11611 ft | 308 kts | 71° |
| 2026-05-05 07:56 | 50.03273 | 8.92616 | 11187 ft | 305 kts | 71° |
| 2026-05-05 07:56 | 50.04002 | 8.95703 | 10774 ft | 303 kts | 71° |
| 2026-05-05 07:56 | 50.04718 | 8.98742 | 10538 ft | 290 kts | 71° |
| 2026-05-05 07:56 | 50.05387 | 9.01591 | 10268 ft | 273 kts | 71° |
| 2026-05-05 07:57 | 50.06019 | 9.04288 | 9910 ft | 265 kts | 71° |
| 2026-05-05 07:57 | 50.06644 | 9.06960 | 9531 ft | 262 kts | 71° |
| 2026-05-05 07:57 | 50.07265 | 9.09622 | 9133 ft | 260 kts | 71° |
| 2026-05-05 07:57 | 50.07881 | 9.12266 | 8741 ft | 259 kts | 71° |
| 2026-05-05 07:58 | 50.08495 | 9.14898 | 8353 ft | 258 kts | 71° |
| 2026-05-05 07:58 | 50.09202 | 9.17445 | 7976 ft | 259 kts | 57° |
| 2026-05-05 07:58 | 50.10539 | 9.19280 | 7504 ft | 258 kts | 26° |
| 2026-05-05 07:58 | 50.12257 | 9.19904 | 7083 ft | 254 kts | 357° |
| 2026-05-05 07:59 | 50.13938 | 9.19218 | 6669 ft | 248 kts | 327° |
| 2026-05-05 07:59 | 50.15159 | 9.17407 | 6297 ft | 242 kts | 298° |
| 2026-05-05 07:59 | 50.15667 | 9.14974 | 5889 ft | 234 kts | 271° |
| 2026-05-05 07:59 | 50.15680 | 9.12428 | 5529 ft | 235 kts | 265° |
| 2026-05-05 08:00 | 50.15597 | 9.09891 | 5148 ft | 234 kts | 264° |
| 2026-05-05 08:00 | 50.15499 | 9.07360 | 4772 ft | 233 kts | 265° |
| 2026-05-05 08:00 | 50.15404 | 9.04835 | 4390 ft | 233 kts | 265° |
| 2026-05-05 08:00 | 50.15309 | 9.02325 | 4078 ft | 230 kts | 265° |
| 2026-05-05 08:01 | 50.15214 | 8.99803 | 4023 ft | 233 kts | 265° |
| 2026-05-05 08:01 | 50.15078 | 8.97320 | 4002 ft | 233 kts | 255° |
| 2026-05-05 08:01 | 50.14351 | 8.95080 | 3904 ft | 229 kts | 229° |
| 2026-05-05 08:01 | 50.13295 | 8.93242 | 3823 ft | 230 kts | 227° |
| 2026-05-05 08:02 | 50.12336 | 8.91241 | 3688 ft | 232 kts | 239° |
| 2026-05-05 08:02 | 50.11727 | 8.88924 | 3455 ft | 231 kts | 251° |
| 2026-05-05 08:02 | 50.11114 | 8.86601 | 3223 ft | 231 kts | 243° |
| 2026-05-05 08:02 | 50.10376 | 8.84391 | 2998 ft | 230 kts | 242° |
| 2026-05-05 08:03 | 50.09710 | 8.82122 | 2776 ft | 231 kts | 249° |
| 2026-05-05 08:03 | 50.09275 | 8.79722 | 2576 ft | 230 kts | 256° |
| 2026-05-05 08:03 | 50.08928 | 8.77371 | 2287 ft | 212 kts | 256° |
| 2026-05-05 08:03 | 50.08530 | 8.75277 | 2068 ft | 195 kts | 249° |
| 2026-05-05 08:04 | 50.08045 | 8.73332 | 1975 ft | 192 kts | 248° |
| 2026-05-05 08:04 | 50.07575 | 8.71460 | 1785 ft | 178 kts | 248° |
| 2026-05-05 08:04 | 50.07133 | 8.69704 | 1583 ft | 171 kts | 248° |
| 2026-05-05 08:04 | 50.06715 | 8.68041 | 1324 ft | 161 kts | 250° |
| 2026-05-05 08:05 | 50.06335 | 8.66402 | 1114 ft | 161 kts | 250° |
| 2026-05-05 08:05 | 50.05970 | 8.64805 | 955 ft | 161 kts | 251° |
| 2026-05-05 08:05 | 50.05578 | 8.63162 | 796 ft | 155 kts | 250° |
| 2026-05-05 08:05 | 50.05206 | 8.61600 | 675 ft | 163 kts | 250° |
| 2026-05-05 08:06 | 50.04823 | 8.60004 | 559 ft | 153 kts | 251° |
| 2026-05-05 08:06 | 50.04426 | 8.58333 | 391 ft | 168 kts | 250° |
| 2026-05-05 08:06 | 50.04068 | 8.56827 | 364 ft | 124 kts | 249° |
| 2026-05-05 08:06 | 50.03814 | 8.55778 | 367 ft | 86 kts | 250° |
| 2026-05-05 08:07 | 50.03655 | 8.55102 | 368 ft | 53 kts | 250° |
| 2026-05-05 08:07 | 50.03548 | 8.54649 | 379 ft | 33 kts | 250° |
| 2026-05-05 08:07 | 50.03507 | 8.54417 | 378 ft | 9 kts | 285° |
| 2026-05-05 08:07 | 50.03529 | 8.54367 | 379 ft | 3 kts | 318° |
| 2026-05-05 08:08 | 50.03555 | 8.54343 | 379 ft | 3 kts | 335° |
| 2026-05-05 08:08 | 50.03570 | 8.54334 | 379 ft | 2 kts | 337° |
| 2026-05-05 08:08 | 50.03577 | 8.54329 | 379 ft | 1 kts | 337° |
| 2026-05-05 08:08 | 50.03608 | 8.54312 | 379 ft | 8 kts | 348° |
| 2026-05-05 08:09 | 50.03649 | 8.54328 | 378 ft | 3 kts | 34° |
| 2026-05-05 08:09 | 50.03682 | 8.54370 | 377 ft | 8 kts | 34° |
| 2026-05-05 08:09 | 50.03729 | 8.54377 | 374 ft | 10 kts | 348° |
| 2026-05-05 08:09 | 50.03798 | 8.54328 | 376 ft | 5 kts | 321° |
| 2026-05-05 08:10 | 50.03807 | 8.54278 | 376 ft | 6 kts | 272° |
| 2026-05-05 08:10 | 50.03795 | 8.54192 | 374 ft | 11 kts | 252° |
| 2026-05-05 08:10 | 50.03761 | 8.54055 | 374 ft | 15 kts | 249° |
| 2026-05-05 08:10 | 50.03725 | 8.53907 | 374 ft | 14 kts | 249° |
| 2026-05-05 08:11 | 50.03692 | 8.53770 | 370 ft | 14 kts | 249° |
| 2026-05-05 08:11 | 50.03666 | 8.53633 | 372 ft | 11 kts | 271° |
| 2026-05-05 08:11 | 50.03697 | 8.53543 | 368 ft | 6 kts | 295° |
| 2026-05-05 08:11 | 50.03701 | 8.53457 | 366 ft | 10 kts | 260° |
| 2026-05-05 08:12 | 50.03673 | 8.53341 | 368 ft | 11 kts | 249° |
| 2026-05-05 08:12 | 50.03647 | 8.53230 | 371 ft | 10 kts | 250° |
| 2026-05-05 08:12 | 50.03620 | 8.53117 | 373 ft | 10 kts | 250° |
| 2026-05-05 08:12 | 50.03603 | 8.53044 | 375 ft | 4 kts | 250° |
| 2026-05-05 08:13 | 50.03587 | 8.52968 | 380 ft | 11 kts | 258° |
| 2026-05-05 08:13 | 50.03599 | 8.52892 | 379 ft | 7 kts | 307° |
| 2026-05-05 08:13 | 50.03623 | 8.52789 | 381 ft | 14 kts | 260° |
| 2026-05-05 08:13 | 50.03631 | 8.52697 | 382 ft | 7 kts | 309° |
| 2026-05-05 08:14 | 50.03679 | 8.52665 | 380 ft | 8 kts | 341° |
| 2026-05-05 08:14 | 50.03707 | 8.52650 | 379 ft | 0 kts | 340° |